
Distance (Route):
Temperature : -42.1°C
Humidity : 9.7%
Pressure : 317.4hPa| Receiver | Frames | First received | Last received |
|---|---|---|---|
| DL1XH-west | 287 | 2026-09-04 11:58:18 | 2026-09-04 12:50:20 |
| DM0DOS-11 | 152 | 2026-09-04 12:05:44 | 2026-09-04 12:47:38 |
| DJ2DS-15 | 78 | 2026-09-04 11:49:20 | 2026-09-04 12:51:51 |
| BIOWL1-15 | 63 | 2026-09-04 12:25:28 | 2026-09-04 12:45:26 |
| DL1XH-15 | 51 | 2026-09-04 12:33:23 | 2026-09-04 12:44:22 |
| GOEST3-10 | 37 | 2026-09-04 12:36:34 | 2026-09-04 12:43:55 |
| BIOWL9-15 | 11 | 2026-09-04 12:26:45 | 2026-09-04 12:43:18 |
| Receiver | Date | Latitude | Longitude | Direction | Speed | Altitude | Climb | Temperature | Humidity | Pressure | Voltage | Killtimer | Uptime | BKT | XDATA |
|---|---|---|---|---|---|---|---|---|---|---|---|---|---|---|---|
| DJ2DS-15 | 2026-09-04 12:51:51 | 56.82846 | 5.38520 | 72° | 119km/h | 8737m | -20.2m/s | -42.1°C | 9.7% | 317.4hPa | 2.5V | 00:00:00 | 00:00:00 | 00:00:00 | |
| DJ2DS-15 | 2026-09-04 12:51:42 | 56.82764 | 5.38020 | 73° | 142km/h | 8917m | -20.1m/s | -42.9°C | 11.2% | 309.2hPa | 2.5V | 00:00:00 | 02:01:18 | 00:00:00 | |
| DJ2DS-15 | 2026-09-04 12:51:22 | 56.82557 | 5.36769 | 76° | 161km/h | 9330m | -21.4m/s | -44.1°C | 9.5% | 291.3hPa | 2.5V | 00:00:00 | 02:00:58 | 00:00:00 | |
| DJ2DS-15 | 2026-09-04 12:50:42 | 56.82085 | 5.33742 | 74° | 179km/h | 10160m | -22.6m/s | -44.2°C | 4.1% | 256.7hPa | 2.5V | 00:00:00 | 02:00:18 | 00:00:00 | |
| DJ2DS-15 | 2026-09-04 12:50:39 | 56.82033 | 5.33426 | 73° | 179km/h | 10247m | -23.0m/s | -44.1°C | 2.2% | 253.4hPa | 2.5V | 00:00:00 | 00:00:00 | 00:00:00 | |
| DL1XH-west | 2026-09-04 12:50:20 | 56.81817 | 5.32001 | 76° | 177km/h | 10654m | -23.8m/s | -44.2°C | 0.5% | 238.4hPa | 2.5V | 08:23:46 | 01:59:56 | 00:00:00 | |
| DL1XH-west | 2026-09-04 12:50:10 | 56.81698 | 5.31220 | 75° | 177km/h | 10890m | -24.1m/s | -45.3°C | 0.1% | 230.2hPa | 2.5V | 08:24:37 | 01:59:46 | 00:00:00 | |
| DL1XH-west | 2026-09-04 12:49:59 | 56.81590 | 5.30371 | 78° | 164km/h | 11147m | -24.2m/s | -45.7°C | 0% | 221.4hPa | 2.6V | 08:24:37 | 01:59:35 | 00:00:00 | |
| DL1XH-west | 2026-09-04 12:49:49 | 56.81505 | 5.29661 | 78° | 150km/h | 11385m | -24.7m/s | -46.1°C | 0% | 213.7hPa | 2.6V | 08:24:37 | 01:59:25 | 00:00:00 | |
| DL1XH-west | 2026-09-04 12:49:39 | 56.81420 | 5.28993 | 77° | 148km/h | 11630m | -25.4m/s | -45.9°C | 0% | 205.9hPa | 2.5V | 08:24:37 | 01:59:15 | 00:00:00 | |
| DL1XH-west | 2026-09-04 12:49:30 | 56.81342 | 5.28362 | 79° | 137km/h | 11880m | -25.5m/s | -46.2°C | 0% | 198.3hPa | 2.6V | 08:24:37 | 01:59:05 | 00:00:00 | |
| DL1XH-west | 2026-09-04 12:49:19 | 56.81282 | 5.27770 | 81° | 126km/h | 12135m | -25.6m/s | -46.6°C | 0% | 190.8hPa | 2.6V | 08:25:28 | 01:58:55 | 00:00:00 | |
| DL1XH-west | 2026-09-04 12:49:09 | 56.81235 | 5.27135 | 84° | 131km/h | 12417m | -26.4m/s | -46.8°C | 0% | 182.9hPa | 2.6V | 08:25:28 | 01:58:44 | 00:00:00 | |
| DL1XH-west | 2026-09-04 12:48:58 | 56.81209 | 5.26577 | 84° | 117km/h | 12683m | -27.6m/s | -46.7°C | 0% | 175.7hPa | 2.6V | 08:25:28 | 01:58:34 | 00:00:00 | |
| DL1XH-west | 2026-09-04 12:48:48 | 56.81170 | 5.26013 | 81° | 110km/h | 12977m | -27.5m/s | -46.6°C | 0% | 168.1hPa | 2.5V | 08:25:28 | 01:58:23 | 00:00:00 | |
| DL1XH-west | 2026-09-04 12:48:38 | 56.81118 | 5.25489 | 81° | 117km/h | 13244m | -28.2m/s | -45.9°C | 0% | 161.3hPa | 2.5V | 08:25:28 | 01:58:13 | 00:00:00 | |
| DL1XH-west | 2026-09-04 12:48:27 | 56.81060 | 5.24964 | 75° | 100km/h | 13549m | -27.5m/s | -46.9°C | 0% | 154.2hPa | 2.6V | 08:26:19 | 01:58:02 | 00:00:00 | |
| DL1XH-west | 2026-09-04 12:48:16 | 56.80990 | 5.24472 | 79° | 115km/h | 13832m | -29.3m/s | -47.1°C | 0% | 147.8hPa | 2.5V | 08:26:19 | 01:57:52 | 00:00:00 | |
| DL1XH-west | 2026-09-04 12:48:06 | 56.80951 | 5.23932 | 86° | 95km/h | 14148m | -30.6m/s | -47.6°C | 0% | 140.9hPa | 2.5V | 08:26:19 | 01:57:41 | 00:00:00 | |
| DL1XH-west | 2026-09-04 12:47:56 | 56.80926 | 5.23586 | 77° | 78km/h | 14406m | -29m/s | -48.2°C | 0% | 135.4hPa | 2.5V | 08:26:19 | 01:57:32 | 00:00:00 | |
| DL1XH-west | 2026-09-04 12:47:46 | 56.80871 | 5.23224 | 72° | 88km/h | 14701m | -29.9m/s | -48.1°C | 0% | 129.5hPa | 2.6V | 08:26:19 | 01:57:22 | 00:00:00 | |
| DJ2DS-15 | 2026-09-04 12:47:39 | 56.80825 | 5.22957 | 74° | 86km/h | 14915m | -31.7m/s | -48.2°C | 0.5% | 125.3hPa | 2.6V | 00:00:00 | 00:00:00 | 00:00:00 | |
| DM0DOS-11 | 2026-09-04 12:47:38 | 56.80814 | 5.22882 | 75° | 84km/h | 14978m | -32.1m/s | -48.2°C | 2.5% | 124.1hPa | 2.6V | 08:26:24 | 01:57:13 | 00:00:00 | |
| DL1XH-west | 2026-09-04 12:47:35 | 56.80801 | 5.22772 | 79° | 80km/h | 15073m | -32m/s | -48.7°C | 0% | 122.4hPa | 2.5V | 08:27:10 | 01:57:10 | 00:00:00 | |
| DM0DOS-11 | 2026-09-04 12:47:28 | 56.80785 | 5.22532 | 85° | 69km/h | 15292m | -31.6m/s | -48.3°C | 2.6% | 118.4hPa | 2.6V | 08:26:34 | 01:57:03 | 00:00:00 | |
| DL1XH-west | 2026-09-04 12:47:23 | 56.80778 | 5.22411 | 80° | 68km/h | 15416m | -29.8m/s | -48.7°C | 0% | 116.2hPa | 2.5V | 08:27:10 | 01:56:59 | 00:00:00 | |
| DJ2DS-15 | 2026-09-04 12:47:22 | 56.80775 | 5.22380 | 80° | 68km/h | 15446m | -29.5m/s | -48.7°C | 2.7% | 115.6hPa | 2.5V | 00:00:00 | 01:56:58 | 00:00:00 | |
| DM0DOS-11 | 2026-09-04 12:47:20 | 56.80756 | 5.22159 | 82° | 68km/h | 15653m | -30.2m/s | -48°C | 2.5% | 112hPa | 2.5V | 08:26:46 | 01:56:51 | 00:00:00 | |
| DL1XH-west | 2026-09-04 12:47:12 | 56.80749 | 5.22064 | 82° | 69km/h | 15744m | -30.8m/s | -48.2°C | 0% | 110.5hPa | 2.6V | 08:27:10 | 01:56:48 | 00:00:00 | |
| DL1XH-west | 2026-09-04 12:47:02 | 56.80727 | 5.21778 | 81° | 60km/h | 16063m | -33.5m/s | -48.2°C | 0% | 105.3hPa | 2.5V | 08:27:10 | 01:56:38 | 00:00:00 | |
| DJ2DS-15 | 2026-09-04 12:47:02 | 56.80727 | 5.21777 | 81° | 64km/h | 16063m | -33.5m/s | -48.2°C | 2.6% | 105.2hPa | 2.5V | 00:00:00 | 01:56:38 | 00:00:00 | |
| DM0DOS-11 | 2026-09-04 12:47:00 | 56.80719 | 5.21696 | 77° | 60km/h | 16162m | -32.6m/s | -48.8°C | 2.7% | 103.7hPa | 2.6V | 08:27:02 | 01:56:35 | 00:00:00 | |
| DM0DOS-11 | 2026-09-04 12:46:54 | 56.80695 | 5.21397 | 86° | 68km/h | 16489m | -33.5m/s | -48.3°C | 2.6% | 98.6hPa | 2.6V | 08:27:12 | 01:56:25 | 00:00:00 | |
| DL1XH-west | 2026-09-04 12:46:51 | 56.80696 | 5.21459 | 86° | 68km/h | 16422m | -33.5m/s | -48.4°C | 0% | 99.6hPa | 2.5V | 08:27:10 | 01:56:27 | 00:00:00 | |
| DL1XH-west | 2026-09-04 12:46:40 | 56.80684 | 5.21152 | 90° | 55km/h | 16786m | -33.5m/s | -47°C | 0% | 94.2hPa | 2.6V | 08:28:01 | 01:56:16 | 00:00:00 | |
| DL1XH-west | 2026-09-04 12:46:29 | 56.80678 | 5.20878 | 83° | 57km/h | 17142m | -33.3m/s | -48.1°C | 0% | 89.3hPa | 2.6V | 08:28:01 | 01:56:05 | 00:00:00 | |
| DL1XH-west | 2026-09-04 12:46:18 | 56.80644 | 5.20586 | 85° | 57km/h | 17494m | -32.6m/s | -49.6°C | 0% | 84.6hPa | 2.5V | 08:28:01 | 01:55:54 | 00:00:00 | |
| DM0DOS-11 | 2026-09-04 12:46:14 | 56.80640 | 5.20406 | 81° | 31km/h | 17795m | -32.7m/s | -48.4°C | 2.5% | 80.8hPa | 2.6V | 08:27:52 | 01:55:45 | 00:00:00 | |
| DL1XH-west | 2026-09-04 12:46:07 | 56.80637 | 5.20379 | 70° | 29km/h | 17859m | -33.2m/s | -48.4°C | 0% | 80hPa | 2.5V | 08:28:01 | 01:55:43 | 00:00:00 | |
| DL1XH-west | 2026-09-04 12:45:56 | 56.80606 | 5.20228 | 81° | 37km/h | 18239m | -35.9m/s | -49.7°C | 0% | 75.5hPa | 2.5V | 08:28:52 | 01:55:32 | 00:00:00 | |
| DJ2DS-15 | 2026-09-04 12:45:51 | 56.80597 | 5.20124 | 74° | 35km/h | 18456m | -36.7m/s | -50.0°C | 0.5% | 73.0hPa | 2.6V | 00:00:00 | 00:00:00 | 00:00:00 | |
| DM0DOS-11 | 2026-09-04 12:45:47 | 56.80563 | 5.20008 | 57° | 37km/h | 18755m | -37m/s | -50.6°C | 3% | 69.7hPa | 2.6V | 08:28:19 | 01:55:18 | 00:00:00 | |
| DL1XH-west | 2026-09-04 12:45:46 | 56.80557 | 5.19993 | 60° | 38km/h | 18792m | -36.7m/s | -50.6°C | 0% | 69.3hPa | 2.6V | 08:28:52 | 01:55:17 | 00:00:00 | |
| DL1XH-west | 2026-09-04 12:45:31 | 56.80507 | 5.19763 | 77° | 51km/h | 19191m | -37.2m/s | -50.2°C | 0% | 65.2hPa | 2.6V | 08:28:52 | 01:55:06 | 00:00:00 | |
| BIOWL1-15 | 2026-09-04 12:45:26 | 56.80483 | 5.19636 | 67° | 51km/h | 19409m | -36.9m/s | -49°C | 0% | 63.1hPa | 2.6V | 08:28:52 | 01:55:00 | 00:00:00 | |
| DM0DOS-11 | 2026-09-04 12:45:22 | 56.80454 | 5.19475 | 77° | 53km/h | 19668m | -38.4m/s | -49.9°C | 2.8% | 60.6hPa | 2.5V | 08:28:44 | 01:54:53 | 00:00:00 | |
| DL1XH-west | 2026-09-04 12:45:20 | 56.80464 | 5.19547 | 74° | 55km/h | 19555m | -37.9m/s | -49.2°C | 0% | 61.7hPa | 2.6V | 08:28:52 | 01:54:56 | 00:00:00 | |
| BIOWL1-15 | 2026-09-04 12:45:15 | 56.80450 | 5.19427 | 82° | 51km/h | 19743m | -38m/s | -50.2°C | 0% | 59.9hPa | 2.6V | 08:28:52 | 01:54:51 | 00:00:00 | |
| DM0DOS-11 | 2026-09-04 12:45:12 | 56.80446 | 5.19257 | 94° | 46km/h | 20057m | -40.8m/s | -49.5°C | 2.8% | 57.1hPa | 2.5V | 08:28:54 | 01:54:43 | 00:00:00 | |
| DL1XH-west | 2026-09-04 12:45:10 | 56.80446 | 5.19319 | 92° | 46km/h | 19937m | -40.8m/s | -49.2°C | 0% | 58.1hPa | 2.6V | 08:28:52 | 01:54:46 | 00:00:00 | |
| BIOWL1-15 | 2026-09-04 12:45:06 | 56.80456 | 5.19158 | 105° | 40km/h | 20262m | -41.1m/s | -50.3°C | 0% | 55.3hPa | 2.6V | 18:12:15 | 01:54:38 | 00:00:00 | |
| DL1XH-west | 2026-09-04 12:44:59 | 56.80462 | 5.19109 | 105° | 35km/h | 20382m | -40.4m/s | -50.6°C | 0% | 54.2hPa | 2.6V | 08:29:43 | 01:54:35 | 00:00:00 | |
| DL1XH-west | 2026-09-04 12:44:49 | 56.80488 | 5.18996 | 118° | 20km/h | 20790m | -40.6m/s | -49.5°C | 0% | 51hPa | 2.5V | 08:29:43 | 01:54:25 | 00:00:00 | |
| DM0DOS-11 | 2026-09-04 12:44:42 | 56.80492 | 5.18909 | 93° | 22km/h | 21244m | -44.3m/s | -50.1°C | 2.9% | 47.5hPa | 2.5V | 08:29:23 | 01:54:14 | 00:00:00 | |
| DL1XH-west | 2026-09-04 12:44:38 | 56.80492 | 5.18909 | 93° | 22km/h | 21244m | -44.3m/s | -50.1°C | 0% | 47.5hPa | 2.5V | 08:29:43 | 01:54:14 | 00:00:00 | |
| DL1XH-west | 2026-09-04 12:44:28 | 56.80488 | 5.18810 | 78° | 20km/h | 21659m | -41.1m/s | -50.2°C | 0% | 44.6hPa | 2.6V | 08:29:43 | 01:54:04 | 00:00:00 | |
| DL1XH-15 | 2026-09-04 12:44:22 | 56.80462 | 5.18683 | 81° | 27km/h | 22218m | -51.3m/s | -50°C | 3% | 40.9hPa | 2.6V | 08:30:00 | 01:53:52 | 00:00:00 | |
| DL1XH-west | 2026-09-04 12:44:17 | 56.80463 | 5.18696 | 81° | 29km/h | 22167m | -51.6m/s | -50.3°C | 0% | 41.2hPa | 2.6V | 18:12:15 | 01:53:53 | 00:00:00 | |
| BIOWL1-15 | 2026-09-04 12:44:17 | 56.80461 | 5.18670 | 84° | 29km/h | 22268m | -50.6m/s | -49.9°C | 0% | 40.6hPa | 2.6V | 18:12:15 | 01:53:51 | 00:00:00 | |
| DL1XH-15 | 2026-09-04 12:44:11 | 56.80460 | 5.18569 | 87° | 26km/h | 22723m | -52.4m/s | -49.4°C | 2.8% | 37.8hPa | 2.6V | 08:30:00 | 01:53:42 | 00:00:00 | |
| DL1XH-west | 2026-09-04 12:44:06 | 56.80460 | 5.18569 | 87° | 26km/h | 22723m | -52.4m/s | -49.4°C | 0% | 37.9hPa | 2.6V | 18:12:15 | 01:53:42 | 00:00:00 | |
| BIOWL1-15 | 2026-09-04 12:44:04 | 56.80459 | 5.18545 | 87° | 27km/h | 22830m | -56.9m/s | -48.9°C | 0% | 37.2hPa | 2.6V | 18:12:15 | 01:53:40 | 00:00:00 | |
| DJ2DS-15 | 2026-09-04 12:44:02 | 56.80459 | 5.18521 | 94° | 18km/h | 22943m | -56.5m/s | -48.5°C | 2.6% | 36.5hPa | 2.5V | 00:00:00 | 01:53:38 | 00:00:00 | |
| DL1XH-15 | 2026-09-04 12:44:01 | 56.80465 | 5.18461 | 108° | 22km/h | 23280m | -55.1m/s | -49°C | 2.7% | 34.7hPa | 2.5V | 08:30:00 | 01:53:32 | 00:00:00 | |
| DL1XH-west | 2026-09-04 12:43:56 | 56.80465 | 5.18461 | 108° | 22km/h | 23280m | -55.1m/s | -49.1°C | 0% | 34.8hPa | 2.5V | 18:12:15 | 01:53:32 | 00:00:00 | |
| GOEST3-10 | 2026-09-04 12:43:55 | 56.80467 | 5.18451 | 111° | 18km/h | 23335m | -54.9m/s | -48.8°C | 2.6% | 34.4hPa | 2.5V | 00:00:00 | 01:53:31 | 00:00:00 | |
| DM0DOS-11 | 2026-09-04 12:43:51 | 56.80476 | 5.18414 | 112° | 13km/h | 23613m | -55.1m/s | -49°C | 2.6% | 33hPa | 2.5V | 08:30:00 | 01:53:26 | 00:00:00 | |
| DL1XH-15 | 2026-09-04 12:43:50 | 56.80471 | 5.18391 | 46° | 16km/h | 23884m | -52m/s | -49.7°C | 2.7% | 31.6hPa | 2.5V | 08:30:00 | 01:53:21 | 00:00:00 | |
| DL1XH-west | 2026-09-04 12:43:46 | 56.80474 | 5.18396 | 56° | 13km/h | 23830m | -54m/s | -49.8°C | 0% | 31.9hPa | 2.6V | 18:12:15 | 01:53:22 | 00:00:00 | |
| GOEST3-10 | 2026-09-04 12:43:45 | 56.80471 | 5.18391 | 47° | 18km/h | 23884m | -51.9m/s | -49.7°C | 2.7% | 31.6hPa | 2.5V | 00:00:00 | 01:53:21 | 00:00:00 | |
| DM0DOS-11 | 2026-09-04 12:43:42 | 56.80458 | 5.18357 | 61° | 20km/h | 24130m | -46.9m/s | -49.7°C | 2.6% | 30.4hPa | 2.5V | 08:30:00 | 01:53:16 | 00:00:00 | |
| DJ2DS-15 | 2026-09-04 12:43:42 | 56.80463 | 5.18372 | 56° | 22km/h | 24035m | -49.6m/s | -49.8°C | 2.7% | 30.9hPa | 2.6V | 00:00:00 | 01:53:18 | 00:00:00 | |
| GOEST3-10 | 2026-09-04 12:43:40 | 56.80458 | 5.18357 | 62° | 20km/h | 24130m | -46.9m/s | -49.7°C | 2.6% | 30.4hPa | 2.6V | 00:00:00 | 00:00:00 | 00:00:00 | |
| DL1XH-15 | 2026-09-04 12:43:36 | 56.80447 | 5.18314 | 69° | 22km/h | 24322m | -28.1m/s | -50.2°C | 2.9% | 29.6hPa | 2.6V | 08:30:00 | 01:53:11 | 00:00:00 | |
| DL1XH-west | 2026-09-04 12:43:36 | 56.80449 | 5.18323 | 64° | 22km/h | 24292m | -33.4m/s | -50.1°C | 0% | 29.7hPa | 2.6V | 18:12:15 | 01:53:12 | 00:00:00 | |
| BIOWL1-15 | 2026-09-04 12:43:31 | 56.80440 | 5.18278 | 71° | 20km/h | 24377m | 3.1m/s | 0°C | 0% | 29.3hPa | 2.5V | 18:12:15 | 01:53:07 | 00:00:00 | |
| DM0DOS-11 | 2026-09-04 12:43:30 | 56.80428 | 5.18222 | 63° | 24km/h | 24348m | 5.7m/s | -50.2°C | 2.9% | 29.4hPa | 2.7V | 08:30:00 | 01:53:01 | 00:00:00 | |
| DL1XH-west | 2026-09-04 12:43:25 | 56.80428 | 5.18222 | 63° | 24km/h | 24348m | 5.7m/s | -50.2°C | 0% | 29.4hPa | 2.7V | 18:12:15 | 01:53:01 | 00:00:00 | |
| BIOWL1-15 | 2026-09-04 12:43:21 | 56.80418 | 5.18181 | 61° | 24km/h | 24328m | 5.2m/s | 0°C | 0% | 29.5hPa | 2.6V | 18:12:15 | 01:52:57 | 00:00:00 | |
| GOEST3-10 | 2026-09-04 12:43:19 | 56.80412 | 5.18163 | 62° | 22km/h | 24318m | 5.6m/s | -50.1°C | 2.9% | 29.5hPa | 2.7V | 00:00:00 | 00:00:00 | 08:30:00 | |
| BIOWL9-15 | 2026-09-04 12:43:18 | 56.80410 | 5.18154 | 61° | 20km/h | 24313m | 4.3m/s | -50.1°C | -1.0% | 29.6hPa | 2.6V | 00:00:00 | 00:00:00 | 00:00:00 | |
| DL1XH-15 | 2026-09-04 12:43:16 | 56.80400 | 5.18130 | 44° | 24km/h | 24297m | 4.4m/s | -50.1°C | 2.9% | 29.6hPa | 2.6V | 08:30:00 | 01:52:51 | 00:00:00 | |
| DL1XH-west | 2026-09-04 12:43:15 | 56.80392 | 5.18114 | 54° | 24km/h | 24287m | 5.8m/s | -50.1°C | 0% | 29.7hPa | 2.6V | 18:12:15 | 01:52:49 | 00:00:00 | |
| GOEST3-10 | 2026-09-04 12:43:14 | 56.80395 | 5.18122 | 49° | 26km/h | 24293m | 4.7m/s | -50.1°C | 2.9% | 29.6hPa | 2.6V | 00:00:00 | 01:52:50 | 00:00:00 | |
| DL1XH-15 | 2026-09-04 12:43:10 | 56.80362 | 5.18035 | 43° | 22km/h | 24247m | 4.8m/s | -50.4°C | 3% | 29.9hPa | 2.6V | 08:30:00 | 01:52:41 | 00:00:00 | |
| BIOWL1-15 | 2026-09-04 12:43:10 | 56.80382 | 5.18083 | 57° | 27km/h | 24272m | 5.7m/s | 0°C | 0% | 0hPa | 2.6V | 18:12:15 | 01:52:46 | 00:00:00 | |
| DL1XH-west | 2026-09-04 12:43:04 | 56.80357 | 5.18029 | 34° | 22km/h | 24241m | 5.8m/s | -50.4°C | 0% | 29.9hPa | 2.6V | 18:12:15 | 01:52:40 | 00:00:00 | |
| GOEST3-10 | 2026-09-04 12:43:03 | 56.80352 | 5.18023 | 28° | 22km/h | 24237m | 4.3m/s | -50.2°C | 3.0% | 29.9hPa | 2.6V | 00:00:00 | 01:52:39 | 00:00:00 | |
| DM0DOS-11 | 2026-09-04 12:43:02 | 56.80335 | 5.17999 | 54° | 22km/h | 24216m | 4.7m/s | -50.2°C | 2.9% | 30hPa | 2.6V | 08:30:00 | 01:52:35 | 00:00:00 | |
| BIOWL1-15 | 2026-09-04 12:42:59 | 56.80313 | 5.17942 | 58° | 24km/h | 24186m | 4.2m/s | 0°C | 0% | 0hPa | 2.6V | 18:12:15 | 01:52:29 | 00:00:00 | |
| GOEST3-10 | 2026-09-04 12:42:58 | 56.80332 | 5.17990 | 55° | 26km/h | 24212m | 5.5m/s | -50.2°C | 3.0% | 30.0hPa | 2.6V | 00:00:00 | 00:00:00 | 00:00:00 | |
| DL1XH-15 | 2026-09-04 12:42:56 | 56.80320 | 5.17962 | 55° | 27km/h | 24196m | 5.2m/s | -50.2°C | 2.9% | 30.1hPa | 2.6V | 08:30:00 | 01:52:31 | 00:00:00 | |
| DL1XH-west | 2026-09-04 12:42:54 | 56.80317 | 5.17951 | 61° | 26km/h | 24191m | 5.4m/s | -50.1°C | 0% | 30.1hPa | 2.6V | 18:12:15 | 01:52:30 | 00:00:00 | |
| GOEST3-10 | 2026-09-04 12:42:53 | 56.80313 | 5.17942 | 59° | 22km/h | 24186m | 4.2m/s | -49.9°C | 2.9% | 30.1hPa | 2.7V | 00:00:00 | 01:52:29 | 00:00:00 | |
| DM0DOS-11 | 2026-09-04 12:42:52 | 56.80296 | 5.17916 | 29° | 22km/h | 24165m | 6m/s | -49.9°C | 2.8% | 30.3hPa | 2.7V | 08:30:00 | 01:52:25 | 00:00:00 | |
| DJ2DS-15 | 2026-09-04 12:42:51 | 56.80301 | 5.17921 | 28° | 22km/h | 24170m | 5.2m/s | -50.0°C | 0.4% | 30.2hPa | 2.6V | 00:00:00 | 00:00:00 | 00:00:00 | |
| DL1XH-15 | 2026-09-04 12:42:50 | 56.80276 | 5.17892 | 37° | 27km/h | 24143m | 4.5m/s | -50°C | 2.8% | 30.4hPa | 2.7V | 08:30:00 | 01:52:21 | 00:00:00 | |
| BIOWL9-15 | 2026-09-04 12:42:47 | 56.80287 | 5.17905 | 31° | 24km/h | 24154m | 5.0m/s | -50.0°C | -1.0% | 30.3hPa | 2.6V | 00:00:00 | 00:00:00 | 00:00:00 | |
| BIOWL1-15 | 2026-09-04 12:42:42 | 56.80263 | 5.17864 | 62° | 26km/h | 24128m | 4.7m/s | 0°C | 0% | 0hPa | 2.6V | 18:12:15 | 01:52:18 | 00:00:00 | |
| DJ2DS-15 | 2026-09-04 12:42:42 | 56.80263 | 5.17864 | 62° | 20km/h | 24128m | 4.7m/s | -50.1°C | 2.9% | 30.4hPa | 2.5V | 00:00:00 | 01:52:18 | 00:00:00 | |
| GOEST3-10 | 2026-09-04 12:42:38 | 56.80249 | 5.17829 | 45° | 18km/h | 24107m | 5.4m/s | -50.2°C | 2.8% | 30.5hPa | 2.5V | 00:00:00 | 00:00:00 | 00:00:00 | |
| DL1XH-15 | 2026-09-04 12:42:36 | 56.80238 | 5.17814 | 25° | 18km/h | 24090m | 6.3m/s | -50.2°C | 2.9% | 30.6hPa | 2.5V | 08:30:00 | 01:52:11 | 00:00:00 | |
| DL1XH-west | 2026-09-04 12:42:32 | 56.80226 | 5.17804 | 34° | 16km/h | 24075m | 6.1m/s | -50.3°C | 0% | 30.7hPa | 2.7V | 18:12:15 | 01:52:08 | 00:00:00 | |
| BIOWL1-15 | 2026-09-04 12:42:30 | 56.80217 | 5.17776 | 63° | 20km/h | 24055m | 5.6m/s | 0°C | 0% | 0hPa | 2.6V | 18:12:15 | 01:52:04 | 00:00:00 | |
| DM0DOS-11 | 2026-09-04 12:42:30 | 56.80214 | 5.17768 | 53° | 20km/h | 24049m | 4.6m/s | -50.5°C | 3% | 30.8hPa | 2.7V | 08:30:00 | 01:52:03 | 00:00:00 | |
| DL1XH-15 | 2026-09-04 12:42:30 | 56.80208 | 5.17754 | 48° | 20km/h | 24039m | 6.1m/s | -50.4°C | 3% | 30.9hPa | 2.6V | 08:30:00 | 01:52:01 | 00:00:00 | |
| DL1XH-west | 2026-09-04 12:42:21 | 56.80194 | 5.17734 | 17° | 16km/h | 24018m | 5m/s | -50.3°C | 0% | 31hPa | 2.7V | 18:12:15 | 01:51:57 | 00:00:00 | |
| BIOWL1-15 | 2026-09-04 12:42:20 | 56.80183 | 5.17725 | 41° | 16km/h | 24002m | 4.5m/s | 0°C | 0% | 0hPa | 2.6V | 18:12:15 | 01:51:54 | 00:00:00 | |
| DM0DOS-11 | 2026-09-04 12:42:20 | 56.80180 | 5.17720 | 45° | 18km/h | 23997m | 4.7m/s | -50.2°C | 2.9% | 31hPa | 2.6V | 08:30:00 | 01:51:53 | 00:00:00 | |
| GOEST3-10 | 2026-09-04 12:42:17 | 56.80180 | 5.17719 | 46° | 16km/h | 23997m | 4.6m/s | -50.1°C | 2.9% | 31.0hPa | 2.6V | 00:00:00 | 00:00:00 | 00:00:00 | |
| DL1XH-15 | 2026-09-04 12:42:16 | 56.80173 | 5.17709 | 36° | 16km/h | 23986m | 5.1m/s | -50.2°C | 2.9% | 31.1hPa | 2.7V | 08:30:00 | 01:51:51 | 00:00:00 | |
| BIOWL9-15 | 2026-09-04 12:42:16 | 56.80173 | 5.17709 | 36° | 16km/h | 23986m | 5.1m/s | 0°C | -1.0% | -1.0hPa | 2.6V | 00:00:00 | 00:00:00 | 00:00:00 | |
| DM0DOS-11 | 2026-09-04 12:42:12 | 56.80146 | 5.17678 | 5° | 13km/h | 23945m | 5.1m/s | -50.2°C | 2.9% | 31.3hPa | 2.6V | 08:30:00 | 01:51:43 | 00:00:00 | |
| DL1XH-west | 2026-09-04 12:42:11 | 56.80157 | 5.17684 | 36° | 16km/h | 23961m | 5.7m/s | -50.3°C | 0% | 31.2hPa | 2.7V | 18:12:15 | 01:51:46 | 00:00:00 | |
| DL1XH-15 | 2026-09-04 12:42:10 | 56.80141 | 5.17676 | 28° | 11km/h | 23935m | 4.8m/s | -50.3°C | 2.9% | 31.4hPa | 2.6V | 08:30:00 | 01:51:41 | 00:00:00 | |
| GOEST3-10 | 2026-09-04 12:42:07 | 56.80146 | 5.17678 | 6° | 13km/h | 23945m | 5.0m/s | -50.2°C | 2.9% | 31.3hPa | 2.6V | 00:00:00 | 00:00:00 | 00:00:00 | |
| DM0DOS-11 | 2026-09-04 12:42:02 | 56.80122 | 5.17658 | 338° | 5km/h | 23891m | 5.7m/s | -50°C | 2.9% | 31.6hPa | 2.6V | 08:30:00 | 01:51:33 | 00:00:00 | |
| DL1XH-west | 2026-09-04 12:42:00 | 56.80127 | 5.17663 | 40° | 11km/h | 23908m | 5.9m/s | -50°C | 0% | 31.5hPa | 2.6V | 18:12:15 | 01:51:36 | 00:00:00 | |
| BIOWL1-15 | 2026-09-04 12:41:53 | 56.80119 | 5.17667 | 305° | 5km/h | 23869m | 4.6m/s | 0°C | 0% | 0hPa | 2.6V | 18:12:15 | 01:51:29 | 00:00:00 | |
| DM0DOS-11 | 2026-09-04 12:41:52 | 56.80108 | 5.17668 | 44° | 9km/h | 23837m | 4.7m/s | -50.3°C | 2.9% | 31.8hPa | 2.7V | 08:30:00 | 01:51:23 | 00:00:00 | |
| DL1XH-west | 2026-09-04 12:41:50 | 56.80114 | 5.17672 | 347° | 9km/h | 23853m | 5.2m/s | -50.3°C | 0% | 31.8hPa | 2.6V | 18:12:15 | 01:51:26 | 00:00:00 | |
| DL1XH-15 | 2026-09-04 12:41:49 | 56.80106 | 5.17665 | 12° | 4km/h | 23826m | 4.7m/s | -50.3°C | 3% | 31.9hPa | 2.6V | 08:30:00 | 01:51:21 | 00:00:00 | |
| GOEST3-10 | 2026-09-04 12:41:46 | 56.80107 | 5.17666 | 39° | 4km/h | 23832m | 5.9m/s | -50.3°C | 3.0% | 31.8hPa | 2.6V | 00:00:00 | 00:00:00 | 08:30:00 | |
| DM0DOS-11 | 2026-09-04 12:41:42 | 56.80111 | 5.17663 | 126° | 7km/h | 23784m | 5.1m/s | -50.1°C | 3% | 32.1hPa | 2.6V | 08:30:00 | 01:51:13 | 00:00:00 | |
| DL1XH-west | 2026-09-04 12:41:39 | 56.80109 | 5.17665 | 195° | 2km/h | 23795m | 4.7m/s | -50.1°C | 0% | 32.1hPa | 2.6V | 18:12:15 | 01:51:15 | 00:00:00 | |
| DJ2DS-15 | 2026-09-04 12:41:39 | 56.80110 | 5.17665 | 143° | 4km/h | 23789m | 5.9m/s | -50.2°C | 0.4% | 32.1hPa | 2.6V | 00:00:00 | 00:00:00 | 00:00:00 | |
| DL1XH-15 | 2026-09-04 12:41:36 | 56.80112 | 5.17658 | 112° | 5km/h | 23772m | 6.5m/s | -50.1°C | 2.9% | 32.1hPa | 2.6V | 08:30:00 | 01:51:11 | 00:00:00 | |
| GOEST3-10 | 2026-09-04 12:41:36 | 56.80112 | 5.17661 | 117° | 9km/h | 23779m | 5.2m/s | -50.0°C | 2.9% | 32.1hPa | 2.6V | 00:00:00 | 00:00:00 | 00:00:00 | |
| DM0DOS-11 | 2026-09-04 12:41:32 | 56.80132 | 5.17640 | 168° | 16km/h | 23728m | 5.7m/s | -49.8°C | 2.9% | 32.4hPa | 2.6V | 08:30:00 | 01:51:03 | 00:00:00 | |
| DL1XH-15 | 2026-09-04 12:41:30 | 56.80140 | 5.17635 | 155° | 18km/h | 23716m | 4.7m/s | -49.7°C | 2.9% | 32.4hPa | 2.6V | 08:30:00 | 01:51:01 | 00:00:00 | |
| BIOWL1-15 | 2026-09-04 12:41:28 | 56.80140 | 5.17635 | 155° | 18km/h | 23716m | 4.7m/s | 0°C | 0% | 0hPa | 2.6V | 18:12:15 | 01:51:01 | 00:00:00 | |
| DL1XH-west | 2026-09-04 12:41:28 | 56.80128 | 5.17641 | 171° | 15km/h | 23734m | 5.4m/s | -49.8°C | 0% | 32.3hPa | 2.7V | 18:12:15 | 01:51:04 | 00:00:00 | |
| GOEST3-10 | 2026-09-04 12:41:24 | 56.80144 | 5.17631 | 152° | 13km/h | 23712m | 4.0m/s | -49.6°C | 2.9% | 32.4hPa | 2.6V | 00:00:00 | 00:00:00 | 00:00:00 | |
| DM0DOS-11 | 2026-09-04 12:41:22 | 56.80164 | 5.17610 | 132° | 22km/h | 23675m | 4.8m/s | -49.5°C | 2.8% | 32.6hPa | 2.6V | 08:30:00 | 01:50:53 | 00:00:00 | |
| DL1XH-west | 2026-09-04 12:41:17 | 56.80164 | 5.17610 | 132° | 22km/h | 23675m | 4.8m/s | -49.5°C | 0% | 32.6hPa | 2.6V | 18:12:15 | 01:50:53 | 00:00:00 | |
| DL1XH-15 | 2026-09-04 12:41:16 | 56.80170 | 5.17593 | 116° | 22km/h | 23663m | 5.8m/s | -49.5°C | 2.8% | 32.7hPa | 2.6V | 08:30:00 | 01:50:51 | 00:00:00 | |
| GOEST3-10 | 2026-09-04 12:41:13 | 56.80175 | 5.17577 | 128° | 18km/h | 23652m | 6.4m/s | -49.5°C | 2.8% | 32.7hPa | 2.6V | 00:00:00 | 00:00:00 | 00:00:00 | |
| DM0DOS-11 | 2026-09-04 12:41:12 | 56.80199 | 5.17548 | 134° | 22km/h | 23613m | 6.2m/s | -49.7°C | 2.8% | 32.9hPa | 2.6V | 08:30:00 | 01:50:42 | 00:00:00 | |
| DL1XH-15 | 2026-09-04 12:41:09 | 56.80207 | 5.17529 | 122° | 27km/h | 23601m | 6.5m/s | -49.7°C | 2.9% | 33hPa | 2.6V | 08:30:00 | 01:50:40 | 00:00:00 | |
| DL1XH-west | 2026-09-04 12:41:07 | 56.80199 | 5.17548 | 134° | 22km/h | 23613m | 6.3m/s | -49.7°C | 0% | 33hPa | 2.6V | 18:12:15 | 01:50:42 | 00:00:00 | |
| GOEST3-10 | 2026-09-04 12:41:03 | 56.80210 | 5.17518 | 120° | 31km/h | 23595m | 5.1m/s | -49.7°C | 2.8% | 33.0hPa | 2.6V | 00:00:00 | 00:00:00 | 00:00:00 | |
| DJ2DS-15 | 2026-09-04 12:41:02 | 56.80214 | 5.17505 | 122° | 29km/h | 23590m | 5.5m/s | -49.7°C | 2.9% | 33.0hPa | 2.6V | 00:00:00 | 01:50:38 | 00:00:00 | |
| DM0DOS-11 | 2026-09-04 12:40:59 | 56.80238 | 5.17453 | 125° | 24km/h | 23562m | 4.9m/s | -49.7°C | 2.9% | 33.2hPa | 2.6V | 08:30:00 | 01:50:33 | 00:00:00 | |
| DL1XH-15 | 2026-09-04 12:40:58 | 56.80252 | 5.17417 | 123° | 27km/h | 23540m | 5.5m/s | -49.6°C | 2.9% | 33.3hPa | 2.6V | 08:30:00 | 01:50:29 | 00:00:00 | |
| BIOWL1-15 | 2026-09-04 12:40:58 | 56.80234 | 5.17462 | 131° | 26km/h | 23567m | 6.4m/s | 0°C | 0% | 0hPa | 2.6V | 18:12:15 | 01:50:34 | 00:00:00 | |
| DL1XH-west | 2026-09-04 12:40:55 | 56.80244 | 5.17436 | 127° | 24km/h | 23551m | 6.3m/s | -49.7°C | 0% | 33.3hPa | 2.6V | 18:12:15 | 01:50:31 | 00:00:00 | |
| GOEST3-10 | 2026-09-04 12:40:53 | 56.80252 | 5.17417 | 124° | 29km/h | 23540m | 5.5m/s | -49.6°C | 2.9% | 33.3hPa | 2.6V | 00:00:00 | 00:00:00 | 00:00:00 | |
| DM0DOS-11 | 2026-09-04 12:40:52 | 56.80275 | 5.17342 | 120° | 35km/h | 23508m | 5m/s | -49.5°C | 2.8% | 33.5hPa | 2.6V | 08:30:00 | 01:50:23 | 00:00:00 | |
| GOEST3-10 | 2026-09-04 12:40:48 | 56.80270 | 5.17356 | 123° | 35km/h | 23513m | 4.6m/s | -49.5°C | 2.8% | 33.4hPa | 2.6V | 00:00:00 | 01:50:24 | 00:00:00 | |
| DL1XH-15 | 2026-09-04 12:40:47 | 56.80290 | 5.17271 | 109° | 35km/h | 23480m | 4.7m/s | -49.5°C | 2.7% | 33.6hPa | 2.6V | 08:30:00 | 01:50:18 | 00:00:00 | |
| DL1XH-west | 2026-09-04 12:40:45 | 56.80284 | 5.17300 | 109° | 33km/h | 23491m | 5.2m/s | -49.5°C | 0% | 33.6hPa | 2.6V | 18:12:15 | 01:50:20 | 00:00:00 | |
| GOEST3-10 | 2026-09-04 12:40:43 | 56.80287 | 5.17285 | 111° | 35km/h | 23485m | 6.1m/s | -49.4°C | 2.8% | 33.5hPa | 2.6V | 00:00:00 | 00:00:00 | 00:00:00 | |
| DJ2DS-15 | 2026-09-04 12:40:42 | 56.80290 | 5.17271 | 110° | 29km/h | 23480m | 4.7m/s | -49.4°C | 2.7% | 33.6hPa | 2.6V | 00:00:00 | 01:50:18 | 00:00:00 | |
| DM0DOS-11 | 2026-09-04 12:40:41 | 56.80300 | 5.17195 | 109° | 33km/h | 23453m | 6.1m/s | -49.7°C | 2.8% | 33.8hPa | 2.6V | 08:30:00 | 01:50:13 | 00:00:00 | |
| GOEST3-10 | 2026-09-04 12:40:38 | 56.80298 | 5.17210 | 102° | 31km/h | 23459m | 5.4m/s | -49.5°C | 2.8% | 33.7hPa | 2.6V | 00:00:00 | 01:50:14 | 00:00:00 | |
| DL1XH-15 | 2026-09-04 12:40:36 | 56.80320 | 5.17122 | 111° | 26km/h | 23420m | 5.9m/s | -49.7°C | 2.9% | 33.9hPa | 2.6V | 08:30:00 | 01:50:07 | 00:00:00 | |
| DL1XH-west | 2026-09-04 12:40:35 | 56.80311 | 5.17156 | 118° | 29km/h | 23437m | 6.3m/s | -49.7°C | 0% | 33.9hPa | 2.7V | 18:12:15 | 01:50:10 | 00:00:00 | |
| GOEST3-10 | 2026-09-04 12:40:33 | 56.80314 | 5.17144 | 115° | 27km/h | 23431m | 5.1m/s | -49.7°C | 2.8% | 33.8hPa | 2.7V | 00:00:00 | 00:00:00 | 00:00:00 | |
| DM0DOS-11 | 2026-09-04 12:40:31 | 56.80326 | 5.17074 | 88° | 27km/h | 23399m | 4.4m/s | -49.6°C | 2.8% | 34.1hPa | 2.7V | 08:30:00 | 01:50:03 | 00:00:00 | |
| DL1XH-west | 2026-09-04 12:40:23 | 56.80327 | 5.17027 | 106° | 24km/h | 23380m | 4.7m/s | -49.6°C | 0% | 34.2hPa | 2.7V | 18:12:15 | 01:49:59 | 00:00:00 | |
| DL1XH-15 | 2026-09-04 12:40:23 | 56.80331 | 5.17006 | 105° | 24km/h | 23369m | 5.4m/s | -49.5°C | 2.8% | 34.2hPa | 2.6V | 08:30:00 | 01:49:57 | 00:00:00 | |
| BIOWL1-15 | 2026-09-04 12:40:14 | 56.80335 | 5.16931 | 78° | 27km/h | 23334m | 3.6m/s | 0°C | 0% | 0hPa | 2.6V | 18:12:15 | 01:49:50 | 00:00:00 | |
| DL1XH-15 | 2026-09-04 12:40:13 | 56.80334 | 5.16896 | 97° | 24km/h | 23319m | 4.9m/s | -50°C | 2.8% | 34.5hPa | 2.6V | 08:30:00 | 01:49:47 | 00:00:00 | |
| DL1XH-west | 2026-09-04 12:40:13 | 56.80333 | 5.16907 | 90° | 26km/h | 23324m | 5m/s | -49.9°C | 0% | 34.5hPa | 2.6V | 18:12:15 | 01:49:48 | 00:00:00 | |
| GOEST3-10 | 2026-09-04 12:40:11 | 56.80334 | 5.16896 | 98° | 24km/h | 23319m | 4.8m/s | -49.9°C | 2.8% | 34.4hPa | 2.6V | 00:00:00 | 00:00:00 | 08:30:00 | |
| DL1XH-15 | 2026-09-04 12:40:06 | 56.80339 | 5.16800 | 77° | 22km/h | 23269m | 4.9m/s | -50.1°C | 2.9% | 34.7hPa | 2.7V | 08:30:00 | 01:49:37 | 00:00:00 | |
| DL1XH-west | 2026-09-04 12:40:02 | 56.80339 | 5.16800 | 77° | 22km/h | 23269m | 4.9m/s | -50.1°C | 0% | 34.7hPa | 2.7V | 18:12:15 | 01:49:37 | 00:00:00 | |
| GOEST3-10 | 2026-09-04 12:40:01 | 56.80339 | 5.16800 | 78° | 26km/h | 23270m | 4.9m/s | 0°C | 0% | 0hPa | 2.6V | 00:00:00 | 00:00:00 | 00:00:00 | |
| GOEST3-10 | 2026-09-04 12:39:56 | 56.80333 | 5.16743 | 87° | 20km/h | 23244m | 5.3m/s | 0°C | 0% | 0hPa | 2.6V | 00:00:00 | 01:49:32 | 00:00:00 | |
| DL1XH-15 | 2026-09-04 12:39:53 | 56.80333 | 5.16699 | 74° | 15km/h | 23220m | 4m/s | -49.8°C | 2.9% | 35hPa | 2.6V | 08:30:00 | 01:49:27 | 00:00:00 | |
| DL1XH-west | 2026-09-04 12:39:50 | 56.80332 | 5.16692 | 74° | 15km/h | 23215m | 4.7m/s | -49.8°C | 0% | 35hPa | 2.7V | 18:12:15 | 01:49:26 | 00:00:00 | |
| DJ2DS-15 | 2026-09-04 12:39:50 | 56.80332 | 5.16692 | 74° | 15km/h | 23215m | 4.7m/s | -49.8°C | 0.4% | 35.0hPa | 2.6V | 00:00:00 | 00:00:00 | 00:00:00 | |
| GOEST3-10 | 2026-09-04 12:39:45 | 56.80325 | 5.16645 | 69° | 24km/h | 23192m | 3.9m/s | 0°C | 0% | 0hPa | 2.6V | 00:00:00 | 01:49:21 | 00:00:00 | |
| DM0DOS-11 | 2026-09-04 12:39:44 | 56.80321 | 5.16602 | 94° | 22km/h | 23173m | 4.3m/s | -49.8°C | 2.9% | 35.3hPa | 2.6V | 08:30:00 | 01:49:17 | 00:00:00 | |
| DL1XH-west | 2026-09-04 12:39:39 | 56.80322 | 5.16584 | 96° | 16km/h | 23163m | 4.6m/s | -49.7°C | 0% | 35.3hPa | 2.7V | 18:12:15 | 01:49:15 | 00:00:00 | |
| GOEST3-10 | 2026-09-04 12:39:35 | 56.80323 | 5.16548 | 85° | 31km/h | 23145m | 4.0m/s | 0°C | 0% | 0hPa | 2.6V | 00:00:00 | 01:49:11 | 00:00:00 | |
| DM0DOS-11 | 2026-09-04 12:39:32 | 56.80314 | 5.16493 | 73° | 35km/h | 23125m | 5.1m/s | -49.6°C | 2.8% | 35.5hPa | 2.6V | 08:30:00 | 01:49:07 | 00:00:00 | |
| DL1XH-west | 2026-09-04 12:39:28 | 56.80308 | 5.16450 | 78° | 29km/h | 23111m | 4.9m/s | -49.5°C | 0% | 35.6hPa | 2.7V | 18:12:15 | 01:49:04 | 00:00:00 | |
| GOEST3-10 | 2026-09-04 12:39:25 | 56.80307 | 5.16413 | 98° | 24km/h | 23097m | 4.5m/s | 0°C | 0% | 0hPa | 2.6V | 00:00:00 | 01:49:01 | 08:30:00 | |
| DM0DOS-11 | 2026-09-04 12:39:24 | 56.80305 | 5.16333 | 81° | 29km/h | 23063m | 3.6m/s | -49.6°C | 2.9% | 35.9hPa | 2.6V | 08:30:00 | 01:48:54 | 00:00:00 | |
| DL1XH-15 | 2026-09-04 12:39:23 | 56.80308 | 5.16369 | 83° | 24km/h | 23077m | 4.3m/s | -49.7°C | 2.9% | 35.8hPa | 2.7V | 08:30:00 | 01:48:57 | 00:00:00 | |
| DL1XH-west | 2026-09-04 12:39:18 | 56.80304 | 5.16320 | 78° | 29km/h | 23059m | 5.4m/s | -49.8°C | 0% | 35.9hPa | 2.7V | 18:12:15 | 01:48:53 | 00:00:00 | |
| GOEST3-10 | 2026-09-04 12:39:15 | 56.80301 | 5.16295 | 76° | 31km/h | 23050m | 4.1m/s | 0°C | 0% | 0hPa | 2.7V | 00:00:00 | 01:48:51 | 00:00:00 | |
| DJ2DS-15 | 2026-09-04 12:39:14 | 56.80299 | 5.16283 | 81° | 26km/h | 23045m | 5.5m/s | -49.8°C | 0.4% | 36.0hPa | 2.7V | 00:00:00 | 00:00:00 | 00:00:00 | |
| DL1XH-15 | 2026-09-04 12:39:13 | 56.80299 | 5.16243 | 90° | 29km/h | 23030m | 5.4m/s | -49.6°C | 2.8% | 36.1hPa | 2.7V | 08:30:00 | 01:48:47 | 00:00:00 | |
| DL1XH-west | 2026-09-04 12:39:06 | 56.80296 | 5.16167 | 84° | 37km/h | 23006m | 4.9m/s | -49.6°C | 0% | 36.2hPa | 2.7V | 18:12:15 | 01:48:42 | 00:00:00 | |
| DL1XH-15 | 2026-09-04 12:39:03 | 56.80291 | 5.16096 | 93° | 29km/h | 22983m | 4.1m/s | -49.5°C | 2.8% | 36.3hPa | 2.6V | 08:30:00 | 01:48:37 | 00:00:00 | |
| DL1XH-west | 2026-09-04 12:38:56 | 56.80291 | 5.16031 | 90° | 29km/h | 22959m | 5.3m/s | -49.6°C | 0% | 36.5hPa | 2.6V | 18:12:15 | 01:48:32 | 00:00:00 | |
| DL1XH-15 | 2026-09-04 12:38:53 | 56.80289 | 5.15960 | 85° | 31km/h | 22935m | 4.7m/s | -49.6°C | 2.7% | 36.6hPa | 2.6V | 08:30:00 | 01:48:27 | 00:00:00 | |
| DL1XH-west | 2026-09-04 12:38:46 | 56.80291 | 5.15887 | 92° | 31km/h | 22911m | 4.1m/s | -49.7°C | 0% | 36.7hPa | 2.6V | 18:12:15 | 01:48:22 | 00:00:00 | |
| GOEST3-10 | 2026-09-04 12:38:44 | 56.80292 | 5.15856 | 98° | 35km/h | 22901m | 4.8m/s | 0°C | 0% | 0hPa | 2.6V | 00:00:00 | 00:00:00 | 00:00:00 | |
| DL1XH-15 | 2026-09-04 12:38:43 | 56.80294 | 5.15792 | 84° | 35km/h | 22882m | 4m/s | -49.9°C | 2.9% | 36.9hPa | 2.6V | 08:30:00 | 01:48:16 | 00:00:00 | |
| DL1XH-west | 2026-09-04 12:38:36 | 56.80292 | 5.15727 | 88° | 37km/h | 22864m | 4m/s | -50.1°C | 0% | 37hPa | 2.6V | 18:12:15 | 01:48:12 | 00:00:00 | |
| GOEST3-10 | 2026-09-04 12:38:34 | 56.80291 | 5.15697 | 84° | 31km/h | 22855m | 4.3m/s | 0°C | 0% | 0hPa | 2.6V | 00:00:00 | 00:00:00 | 08:30:00 | |
| DL1XH-15 | 2026-09-04 12:38:33 | 56.80289 | 5.15641 | 88° | 29km/h | 22836m | 4.7m/s | -50.3°C | 2.9% | 37.1hPa | 2.6V | 08:30:00 | 01:48:06 | 00:00:00 | |
| DL1XH-west | 2026-09-04 12:38:25 | 56.80285 | 5.15579 | 88° | 26km/h | 22811m | 4.2m/s | -50.1°C | 0% | 37.3hPa | 2.6V | 18:12:15 | 01:48:01 | 00:00:00 | |
| GOEST3-10 | 2026-09-04 12:38:24 | 56.80285 | 5.15567 | 90° | 27km/h | 22807m | 3.8m/s | 0°C | 0% | 0hPa | 2.6V | 00:00:00 | 00:00:00 | 00:00:00 | |
| DL1XH-15 | 2026-09-04 12:38:22 | 56.80281 | 5.15522 | 75° | 27km/h | 22788m | 5.5m/s | -50.3°C | 2.9% | 37.4hPa | 2.6V | 08:30:00 | 01:47:56 | 00:00:00 | |
| DL1XH-west | 2026-09-04 12:38:15 | 56.80273 | 5.15461 | 67° | 22km/h | 22764m | 4.5m/s | -50.2°C | 0% | 37.6hPa | 2.7V | 18:12:15 | 01:47:51 | 00:00:00 | |
| DM0DOS-11 | 2026-09-04 12:38:12 | 56.80267 | 5.15407 | 86° | 24km/h | 22734m | 5.2m/s | -50.3°C | 2.9% | 37.7hPa | 2.6V | 08:30:00 | 01:47:45 | 00:00:00 | |
| DL1XH-west | 2026-09-04 12:38:05 | 56.80269 | 5.15359 | 89° | 27km/h | 22714m | 4.7m/s | -50.3°C | 0% | 37.9hPa | 2.7V | 18:12:15 | 01:47:41 | 00:00:00 | |
| DJ2DS-15 | 2026-09-04 12:38:02 | 56.80268 | 5.15323 | 89° | 16km/h | 22701m | 5.1m/s | -50.2°C | 2.9% | 37.9hPa | 2.6V | 00:00:00 | 01:47:38 | 00:00:00 | |
| DM0DOS-11 | 2026-09-04 12:38:01 | 56.80266 | 5.15279 | 90° | 18km/h | 22675m | 5.7m/s | -50.3°C | 2.9% | 38.1hPa | 2.6V | 08:30:00 | 01:47:33 | 00:00:00 | |
| DL1XH-west | 2026-09-04 12:37:55 | 56.80268 | 5.15253 | 97° | 20km/h | 22660m | 5.1m/s | -50.4°C | 0% | 38.2hPa | 2.7V | 18:12:15 | 01:47:30 | 00:00:00 | |
| GOEST3-10 | 2026-09-04 12:37:54 | 56.80268 | 5.15253 | 97° | 22km/h | 22660m | 5.1m/s | 0°C | 0% | 0hPa | 2.6V | 00:00:00 | 01:47:30 | 00:00:00 | |
| GOEST3-10 | 2026-09-04 12:37:49 | 56.80274 | 5.15211 | 96° | 11km/h | 22636m | 5.4m/s | 0°C | 0% | 0hPa | 2.6V | 00:00:00 | 00:00:00 | 00:00:00 | |
| DM0DOS-11 | 2026-09-04 12:37:48 | 56.80273 | 5.15201 | 77° | 9km/h | 22626m | 4.5m/s | -50.2°C | 2.9% | 38.4hPa | 2.6V | 08:30:00 | 01:47:23 | 00:00:00 | |
| BIOWL1-15 | 2026-09-04 12:37:45 | 56.80274 | 5.15194 | 112° | 9km/h | 22616m | 4.6m/s | -50.2°C | 0% | 38.4hPa | 2.6V | 18:12:15 | 01:47:21 | 00:00:00 | |
| DL1XH-west | 2026-09-04 12:37:44 | 56.80275 | 5.15190 | 110° | 11km/h | 22611m | 5m/s | -50.1°C | 0% | 38.5hPa | 2.6V | 18:12:15 | 01:47:20 | 00:00:00 | |
| DM0DOS-11 | 2026-09-04 12:37:42 | 56.80288 | 5.15138 | 110° | 18km/h | 22577m | 5.3m/s | -50.1°C | 2.9% | 38.7hPa | 2.6V | 08:30:00 | 01:47:13 | 00:00:00 | |
| DL1XH-15 | 2026-09-04 12:37:42 | 56.80280 | 5.15161 | 120° | 20km/h | 22592m | 5.2m/s | -50.1°C | 2.8% | 38.5hPa | 2.6V | 08:30:00 | 01:47:16 | 00:00:00 | |
| BIOWL1-15 | 2026-09-04 12:37:34 | 56.80291 | 5.15114 | 101° | 16km/h | 22562m | 5.4m/s | -50.2°C | 0% | 38.7hPa | 2.6V | 18:12:15 | 01:47:10 | 00:00:00 | |
| DL1XH-west | 2026-09-04 12:37:33 | 56.80291 | 5.15107 | 102° | 18km/h | 22557m | 4.7m/s | -50.3°C | 0% | 38.8hPa | 2.6V | 18:12:15 | 01:47:09 | 00:00:00 | |
| DL1XH-15 | 2026-09-04 12:37:33 | 56.80293 | 5.15082 | 98° | 18km/h | 22541m | 4.6m/s | -50.4°C | 3% | 38.9hPa | 2.6V | 08:30:00 | 01:47:06 | 00:00:00 | |
| GOEST3-10 | 2026-09-04 12:37:31 | 56.80292 | 5.15090 | 93° | 18km/h | 22546m | 4.4m/s | 0°C | 0% | 0hPa | 2.7V | 00:00:00 | 01:47:07 | 00:00:00 | |
| DM0DOS-11 | 2026-09-04 12:37:29 | 56.80297 | 5.15058 | 115° | 18km/h | 22527m | 4.6m/s | -50.2°C | 2.9% | 38.9hPa | 2.7V | 08:30:00 | 01:47:03 | 00:00:00 | |
| DL1XH-west | 2026-09-04 12:37:23 | 56.80305 | 5.15020 | 114° | 20km/h | 22502m | 4.2m/s | -50°C | 0% | 39.1hPa | 2.6V | 18:12:15 | 01:46:58 | 00:00:00 | |
| DL1XH-15 | 2026-09-04 12:37:22 | 56.80309 | 5.15000 | 100° | 26km/h | 22491m | 5.8m/s | -50°C | 2.8% | 39.1hPa | 2.7V | 08:30:00 | 01:46:56 | 00:00:00 | |
| DL1XH-west | 2026-09-04 12:37:12 | 56.80319 | 5.14891 | 104° | 26km/h | 22449m | 5m/s | -50.1°C | 0% | 39.4hPa | 2.6V | 18:12:15 | 01:46:48 | 00:00:00 | |
| DL1XH-15 | 2026-09-04 12:37:12 | 56.80322 | 5.14870 | 100° | 22km/h | 22439m | 5.7m/s | -50.4°C | 3% | 39.5hPa | 2.7V | 08:30:00 | 01:46:46 | 00:00:00 | |
| GOEST3-10 | 2026-09-04 12:37:11 | 56.80320 | 5.14880 | 104° | 24km/h | 22445m | 4.9m/s | 0°C | 0% | 0hPa | 2.6V | 00:00:00 | 01:46:47 | 00:00:00 | |
| GOEST3-10 | 2026-09-04 12:37:05 | 56.80328 | 5.14817 | 106° | 31km/h | 22415m | 4.2m/s | 0°C | 0% | 0hPa | 2.6V | 00:00:00 | 00:00:00 | 00:00:00 | |
| DL1XH-15 | 2026-09-04 12:37:02 | 56.80332 | 5.14744 | 93° | 35km/h | 22389m | 4.1m/s | -50.4°C | 2.9% | 39.8hPa | 2.6V | 08:30:00 | 01:46:36 | 00:00:00 | |
| DL1XH-west | 2026-09-04 12:37:01 | 56.80332 | 5.14759 | 95° | 35km/h | 22394m | 5.2m/s | -50.5°C | 0% | 39.8hPa | 2.6V | 18:12:15 | 01:46:37 | 00:00:00 | |
| DL1XH-west | 2026-09-04 12:36:51 | 56.80326 | 5.14604 | 77° | 33km/h | 22341m | 5.5m/s | -50.4°C | 0% | 40.1hPa | 2.6V | 18:12:15 | 01:46:27 | 00:00:00 | |
| DM0DOS-11 | 2026-09-04 12:36:50 | 56.80325 | 5.14589 | 77° | 33km/h | 22336m | 5.5m/s | -50.3°C | 2.9% | 40.1hPa | 2.7V | 08:30:00 | 01:46:26 | 00:00:00 | |
| DL1XH-15 | 2026-09-04 12:36:42 | 56.80310 | 5.14445 | 78° | 31km/h | 22284m | 5.5m/s | -50.4°C | 2.9% | 40.4hPa | 2.6V | 08:30:00 | 01:46:16 | 00:00:00 | |
| DL1XH-west | 2026-09-04 12:36:40 | 56.80310 | 5.14445 | 78° | 31km/h | 22284m | 5.6m/s | -50.4°C | 0% | 40.4hPa | 2.6V | 18:12:15 | 01:46:16 | 00:00:00 | |
| BIOWL1-15 | 2026-09-04 12:36:38 | 56.80303 | 5.14401 | 67° | 37km/h | 22268m | 5.7m/s | -50.3°C | 0% | 40.5hPa | 2.6V | 18:12:15 | 01:46:13 | 00:00:00 | |
| GOEST3-10 | 2026-09-04 12:36:34 | 56.80291 | 5.14352 | 68° | 38km/h | 22253m | 4.9m/s | 0°C | 0% | 0hPa | 2.6V | 00:00:00 | 01:46:10 | 00:00:00 | |
| DL1XH-15 | 2026-09-04 12:36:32 | 56.80276 | 5.14290 | 69° | 37km/h | 22232m | 3.7m/s | -50.6°C | 2.9% | 40.8hPa | 2.6V | 08:30:00 | 01:46:06 | 00:00:00 | |
| DL1XH-west | 2026-09-04 12:36:31 | 56.80276 | 5.14290 | 69° | 37km/h | 22232m | 3.7m/s | -50.6°C | 0% | 40.8hPa | 2.6V | 18:12:15 | 01:46:06 | 00:00:00 | |
| DL1XH-15 | 2026-09-04 12:36:25 | 56.80260 | 5.14135 | 68° | 33km/h | 22183m | 5.3m/s | -51°C | 3% | 41.1hPa | 2.6V | 08:30:00 | 01:45:56 | 00:00:00 | |
| BIOWL1-15 | 2026-09-04 12:36:25 | 56.80269 | 5.14207 | 83° | 37km/h | 22208m | 4.2m/s | -50.6°C | 0% | 41hPa | 2.6V | 18:12:15 | 01:46:01 | 00:00:00 | |
| DL1XH-west | 2026-09-04 12:36:19 | 56.80256 | 5.14121 | 66° | 33km/h | 22178m | 4.2m/s | -51°C | 0% | 41.1hPa | 2.6V | 18:12:15 | 01:45:55 | 00:00:00 | |
| DM0DOS-11 | 2026-09-04 12:36:15 | 56.80225 | 5.14003 | 58° | 33km/h | 22130m | 6.1m/s | -51.2°C | 3.1% | 41.4hPa | 2.7V | 08:30:00 | 01:45:46 | 00:00:00 | |
| DL1XH-west | 2026-09-04 12:36:08 | 56.80215 | 5.13976 | 52° | 37km/h | 22121m | 3.7m/s | -51°C | 0% | 41.5hPa | 2.6V | 18:12:15 | 01:45:44 | 00:00:00 | |
| DM0DOS-11 | 2026-09-04 12:36:04 | 56.80165 | 5.13874 | 40° | 31km/h | 22075m | 4.3m/s | -50.9°C | 3% | 41.8hPa | 2.7V | 08:30:00 | 01:45:35 | 00:00:00 | |
| DL1XH-west | 2026-09-04 12:35:58 | 56.80151 | 5.13855 | 34° | 37km/h | 22065m | 4.8m/s | -50.9°C | 0% | 41.9hPa | 2.6V | 18:12:15 | 01:45:33 | 00:00:00 | |
| DL1XH-15 | 2026-09-04 12:35:58 | 56.80124 | 5.13822 | 35° | 31km/h | 22043m | 6.3m/s | -50.8°C | 3.1% | 42hPa | 2.6V | 08:30:00 | 01:45:29 | 00:00:00 | |
| BIOWL1-15 | 2026-09-04 12:35:53 | 56.80124 | 5.13822 | 35° | 31km/h | 22043m | 6.3m/s | -50.8°C | 0% | 42hPa | 2.6V | 18:12:15 | 01:45:29 | 00:00:00 | |
| DM0DOS-11 | 2026-09-04 12:35:52 | 56.80104 | 5.13785 | 56° | 24km/h | 22021m | 4.9m/s | -50.7°C | 3.1% | 42.1hPa | 2.7V | 08:30:00 | 01:45:25 | 00:00:00 | |
| DL1XH-west | 2026-09-04 12:35:48 | 56.80101 | 5.13776 | 57° | 24km/h | 22016m | 5.8m/s | -50.8°C | 0% | 42.1hPa | 2.7V | 18:12:15 | 01:45:24 | 00:00:00 | |
| DL1XH-15 | 2026-09-04 12:35:46 | 56.80070 | 5.13718 | 35° | 24km/h | 21980m | 5.6m/s | -50.8°C | 3.1% | 42.4hPa | 2.6V | 08:30:00 | 01:45:17 | 00:00:00 | |
| DJ2DS-15 | 2026-09-04 12:35:42 | 56.80075 | 5.13725 | 36° | 18km/h | 21986m | 4.5m/s | -50.7°C | 3.0% | 42.3hPa | 2.6V | 00:00:00 | 01:45:18 | 00:00:00 | |
| DM0DOS-11 | 2026-09-04 12:35:40 | 56.80061 | 5.13704 | 41° | 22km/h | 21970m | 5.2m/s | -50.9°C | 3% | 42.5hPa | 2.6V | 08:30:00 | 01:45:15 | 00:00:00 | |
| DL1XH-west | 2026-09-04 12:35:38 | 56.80057 | 5.13697 | 48° | 20km/h | 21964m | 5.3m/s | -50.7°C | 0% | 42.5hPa | 2.7V | 18:12:15 | 01:45:14 | 00:00:00 | |
| DJ2DS-15 | 2026-09-04 12:35:38 | 56.80054 | 5.13690 | 55° | 18km/h | 21959m | 4.8m/s | -50.8°C | 0.5% | 42.5hPa | 2.7V | 00:00:00 | 00:00:00 | 00:00:00 | |
| DM0DOS-11 | 2026-09-04 12:35:34 | 56.80032 | 5.13637 | 36° | 18km/h | 21916m | 4.5m/s | -50.6°C | 3% | 42.8hPa | 2.7V | 08:30:00 | 01:45:05 | 00:00:00 | |
| DL1XH-15 | 2026-09-04 12:35:32 | 56.80039 | 5.13647 | 44° | 16km/h | 21927m | 5.5m/s | -50.6°C | 3% | 42.7hPa | 2.6V | 08:30:00 | 01:45:07 | 00:00:00 | |
| DL1XH-west | 2026-09-04 12:35:27 | 56.80026 | 5.13628 | 43° | 15km/h | 21905m | 4.6m/s | -50.5°C | 0% | 42.9hPa | 2.6V | 18:12:15 | 01:45:03 | 00:00:00 | |
| DM0DOS-11 | 2026-09-04 12:35:22 | 56.80013 | 5.13574 | 66° | 20km/h | 21865m | 4.5m/s | -50.4°C | 2.9% | 43.1hPa | 2.6V | 08:30:00 | 01:44:55 | 00:00:00 | |
| DL1XH-west | 2026-09-04 12:35:16 | 56.80006 | 5.13552 | 54° | 15km/h | 21849m | 4.6m/s | -50.6°C | 0% | 43.2hPa | 2.6V | 18:12:15 | 01:44:52 | 00:00:00 | |
| BIOWL1-15 | 2026-09-04 12:35:14 | 56.80001 | 5.13542 | 44° | 15km/h | 21839m | 5.3m/s | -50.6°C | 0% | 43.3hPa | 2.6V | 18:12:15 | 01:44:50 | 00:00:00 | |
| DM0DOS-11 | 2026-09-04 12:35:10 | 56.79998 | 5.13516 | 110° | 18km/h | 21816m | 4.3m/s | -50.7°C | 3% | 43.5hPa | 2.6V | 08:30:00 | 01:44:45 | 00:00:00 | |
| DL1XH-west | 2026-09-04 12:35:05 | 56.80000 | 5.13475 | 86° | 24km/h | 21796m | 6m/s | -50.7°C | 0% | 43.6hPa | 2.6V | 18:12:15 | 01:44:41 | 00:00:00 | |
| DM0DOS-11 | 2026-09-04 12:35:04 | 56.79987 | 5.13416 | 83° | 20km/h | 21761m | 3.9m/s | -50.6°C | 3% | 43.9hPa | 2.5V | 08:30:00 | 01:44:34 | 00:00:00 | |
| DL1XH-15 | 2026-09-04 12:35:02 | 56.79993 | 5.13440 | 55° | 22km/h | 21776m | 4.7m/s | -50.7°C | 0% | 43.8hPa | 2.7V | 08:30:00 | 01:44:37 | 00:00:00 | |
| DJ2DS-15 | 2026-09-04 12:35:02 | 56.79996 | 5.13448 | 61° | 26km/h | 21781m | 5.7m/s | -50.6°C | 3.0% | 43.7hPa | 2.6V | 00:00:00 | 01:44:38 | 00:00:00 | |
| BIOWL9-15 | 2026-09-04 12:35:01 | 56.79990 | 5.13432 | 58° | 20km/h | 21770m | 5.1m/s | -50.7°C | 0.5% | 43.8hPa | 2.6V | 00:00:00 | 00:00:00 | 00:00:00 | |
| DL1XH-15 | 2026-09-04 12:34:56 | 56.79992 | 5.13333 | 89° | 29km/h | 21725m | 5.3m/s | 0°C | 0% | 0hPa | 2.6V | 00:00:00 | 01:44:27 | 00:00:00 | |
| DL1XH-west | 2026-09-04 12:34:55 | 56.79988 | 5.13383 | 99° | 27km/h | 21745m | 4.9m/s | -50.6°C | 0% | 43.9hPa | 2.6V | 18:12:15 | 01:44:31 | 00:00:00 | |
| DL1XH-west | 2026-09-04 12:34:45 | 56.79983 | 5.13249 | 83° | 26km/h | 21690m | 4.6m/s | -50.5°C | 0% | 44.3hPa | 2.6V | 18:12:15 | 01:44:20 | 00:00:00 | |
| DM0DOS-11 | 2026-09-04 12:34:43 | 56.79982 | 5.13188 | 81° | 31km/h | 21665m | 4.2m/s | -50.4°C | 3% | 44.5hPa | 2.6V | 08:30:00 | 01:44:15 | 00:00:00 | |
| DL1XH-15 | 2026-09-04 12:34:42 | 56.79983 | 5.13214 | 91° | 27km/h | 21675m | 5.4m/s | 0°C | 0% | 0hPa | 2.7V | 00:00:00 | 01:44:17 | 00:00:00 | |
| DL1XH-west | 2026-09-04 12:34:33 | 56.79971 | 5.13110 | 80° | 31km/h | 21636m | 3.9m/s | -50.3°C | 0% | 44.7hPa | 2.6V | 18:12:15 | 01:44:09 | 00:00:00 | |
| DL1XH-15 | 2026-09-04 12:34:32 | 56.79969 | 5.13083 | 85° | 27km/h | 21626m | 4.9m/s | 0°C | 0% | 0hPa | 2.6V | 00:00:00 | 01:44:07 | 00:00:00 | |
| DM0DOS-11 | 2026-09-04 12:34:32 | 56.79967 | 5.13059 | 82° | 26km/h | 21616m | 5.7m/s | -50.1°C | 2.9% | 44.8hPa | 2.7V | 08:30:00 | 01:44:05 | 00:00:00 | |
| BIOWL9-15 | 2026-09-04 12:34:30 | 56.79966 | 5.13048 | 78° | 26km/h | 21612m | 4.4m/s | -50.2°C | 0.5% | 44.9hPa | 2.7V | 00:00:00 | 00:00:00 | 00:00:00 | |
| DM0DOS-11 | 2026-09-04 12:34:23 | 56.79951 | 5.12953 | 80° | 22km/h | 21568m | 4.5m/s | -50°C | 2.9% | 45.2hPa | 2.7V | 08:30:00 | 01:43:55 | 00:00:00 | |
| DL1XH-15 | 2026-09-04 12:34:23 | 56.79954 | 5.12975 | 73° | 27km/h | 21578m | 3.9m/s | 0°C | 0% | 0hPa | 2.6V | 00:00:00 | 01:43:57 | 00:00:00 | |
| BIOWL1-15 | 2026-09-04 12:34:22 | 56.79956 | 5.12987 | 71° | 27km/h | 21582m | 4.1m/s | -50.1°C | 0% | 45.1hPa | 2.6V | 18:12:15 | 01:43:58 | 00:00:00 | |
| DJ2DS-15 | 2026-09-04 12:34:22 | 56.79956 | 5.12987 | 71° | 22km/h | 21582m | 4.0m/s | -50.0°C | 2.9% | 45.0hPa | 2.6V | 00:00:00 | 01:43:58 | 00:00:00 | |
| DL1XH-15 | 2026-09-04 12:34:16 | 56.79944 | 5.12881 | 73° | 18km/h | 21532m | 5.3m/s | 0°C | 0% | 0hPa | 2.6V | 00:00:00 | 01:43:47 | 00:00:00 | |
| DL1XH-west | 2026-09-04 12:34:12 | 56.79944 | 5.12881 | 73° | 18km/h | 21532m | 5.3m/s | -50.2°C | 0% | 45.4hPa | 2.6V | 18:12:15 | 01:43:47 | 00:00:00 | |
| BIOWL1-15 | 2026-09-04 12:34:12 | 56.79942 | 5.12872 | 67° | 20km/h | 21527m | 4.4m/s | 0°C | 0% | 45.5hPa | 2.6V | 18:12:15 | 01:43:46 | 00:00:00 | |
| DM0DOS-11 | 2026-09-04 12:34:11 | 56.79940 | 5.12864 | 67° | 20km/h | 21522m | 4m/s | -50.2°C | 2.9% | 45.5hPa | 2.7V | 08:30:00 | 01:43:45 | 00:00:00 | |
| BIOWL1-15 | 2026-09-04 12:34:01 | 56.79935 | 5.12765 | 79° | 24km/h | 21474m | 3.9m/s | 0°C | 0% | 45.8hPa | 2.6V | 18:12:15 | 01:43:35 | 00:00:00 | |
| DL1XH-15 | 2026-09-04 12:34:01 | 56.79935 | 5.12765 | 78° | 24km/h | 21474m | 3.9m/s | 0°C | 0% | 0hPa | 2.6V | 00:00:00 | 01:43:35 | 00:00:00 | |
| DL1XH-west | 2026-09-04 12:34:00 | 56.79936 | 5.12776 | 84° | 24km/h | 21479m | 5.1m/s | -50.1°C | 0% | 45.8hPa | 2.6V | 18:12:15 | 01:43:36 | 00:00:00 | |
| BIOWL9-15 | 2026-09-04 12:33:59 | 56.79935 | 5.12765 | 78° | 22km/h | 21475m | 3.9m/s | -50.2°C | 0.4% | 45.8hPa | 2.7V | 00:00:00 | 00:00:00 | 00:00:00 | |
| DM0DOS-11 | 2026-09-04 12:33:50 | 56.79937 | 5.12674 | 105° | 20km/h | 21426m | 5m/s | -50.2°C | 2.9% | 46.1hPa | 2.7V | 08:30:00 | 01:43:25 | 00:00:00 | |
| DL1XH-west | 2026-09-04 12:33:50 | 56.79936 | 5.12682 | 109° | 20km/h | 21431m | 3.7m/s | -50.1°C | 0% | 46.1hPa | 2.6V | 18:12:15 | 01:43:26 | 00:00:00 | |
| BIOWL1-15 | 2026-09-04 12:33:49 | 56.79938 | 5.12665 | 97° | 20km/h | 21421m | 4.7m/s | 0°C | 0% | 0hPa | 2.7V | 18:12:15 | 01:43:24 | 00:00:00 | |
| DM0DOS-11 | 2026-09-04 12:33:42 | 56.79941 | 5.12574 | 105° | 20km/h | 21375m | 4.6m/s | -50.7°C | 3% | 46.5hPa | 2.7V | 08:30:00 | 01:43:14 | 00:00:00 | |
| DL1XH-west | 2026-09-04 12:33:40 | 56.79939 | 5.12583 | 105° | 20km/h | 21379m | 3.5m/s | -50.6°C | 0% | 46.5hPa | 2.6V | 18:12:15 | 01:43:15 | 00:00:00 | |
| DJ2DS-15 | 2026-09-04 12:33:40 | 56.79938 | 5.12591 | 98° | 26km/h | 21384m | 4.6m/s | -50.5°C | 3.0% | 46.4hPa | 2.6V | 00:00:00 | 01:43:16 | 00:00:00 | |
| DM0DOS-11 | 2026-09-04 12:33:30 | 56.79950 | 5.12445 | 94° | 27km/h | 21328m | 4.8m/s | -50.5°C | 3% | 46.9hPa | 2.6V | 08:30:00 | 01:43:04 | 00:00:00 | |
| DL1XH-west | 2026-09-04 12:33:29 | 56.79950 | 5.12445 | 94° | 27km/h | 21328m | 4.9m/s | -50.5°C | 0% | 46.9hPa | 2.6V | 18:12:15 | 01:43:04 | 00:00:00 | |
| BIOWL9-15 | 2026-09-04 12:33:28 | 56.79951 | 5.12432 | 97° | 27km/h | 21324m | 3.5m/s | -50.5°C | 0.5% | 46.9hPa | 2.6V | 00:00:00 | 00:00:00 | 00:00:00 | |
| DM0DOS-11 | 2026-09-04 12:33:23 | 56.79948 | 5.12331 | 79° | 24km/h | 21282m | 4m/s | -50.6°C | 3% | 47.2hPa | 2.6V | 08:30:00 | 01:42:54 | 00:00:00 | |
| DL1XH-15 | 2026-09-04 12:33:23 | 56.79949 | 5.12351 | 89° | 22km/h | 21291m | 4.1m/s | 0°C | 0% | 0hPa | 2.6V | 00:00:00 | 01:42:56 | 00:00:00 | |
| DL1XH-west | 2026-09-04 12:33:17 | 56.79947 | 5.12320 | 81° | 26km/h | 21278m | 4m/s | -50.7°C | 0% | 47.2hPa | 2.7V | 18:12:15 | 01:42:53 | 00:00:00 | |
| DM0DOS-11 | 2026-09-04 12:33:12 | 56.79942 | 5.12200 | 80° | 24km/h | 21230m | 4.3m/s | -50.7°C | 3% | 47.6hPa | 2.6V | 08:30:00 | 01:42:43 | 00:00:00 | |
| DL1XH-west | 2026-09-04 12:33:07 | 56.79941 | 5.12189 | 84° | 22km/h | 21225m | 5.2m/s | -50.6°C | 0% | 47.6hPa | 2.7V | 18:12:15 | 01:42:42 | 00:00:00 | |
| DJ2DS-15 | 2026-09-04 12:33:00 | 56.79936 | 5.12130 | 83° | 16km/h | 21196m | 4.2m/s | -50.5°C | 3.0% | 47.8hPa | 2.6V | 00:00:00 | 01:42:36 | 00:00:00 | |
| DM0DOS-11 | 2026-09-04 12:32:58 | 56.79933 | 5.12101 | 66° | 22km/h | 21182m | 4.4m/s | -50.6°C | 3% | 47.9hPa | 2.7V | 08:30:00 | 01:42:33 | 00:00:00 | |
| DL1XH-west | 2026-09-04 12:32:56 | 56.79927 | 5.12075 | 73° | 20km/h | 21168m | 4.7m/s | -50.5°C | 0% | 48hPa | 2.6V | 18:12:15 | 01:42:30 | 00:00:00 | |
| DM0DOS-11 | 2026-09-04 12:32:53 | 56.79918 | 5.12023 | 71° | 11km/h | 21131m | 4.9m/s | -50.5°C | 3% | 48.3hPa | 2.7V | 08:30:00 | 01:42:22 | 00:00:00 | |
| DL1XH-west | 2026-09-04 12:32:45 | 56.79917 | 5.12013 | 77° | 13km/h | 21121m | 5.7m/s | -50.4°C | 0% | 48.4hPa | 2.6V | 18:12:15 | 01:42:20 | 00:00:00 | |
| DJ2DS-15 | 2026-09-04 12:32:40 | 56.79917 | 5.11992 | 111° | 13km/h | 21103m | 3.9m/s | -50.2°C | 3.0% | 48.5hPa | 2.6V | 00:00:00 | 01:42:16 | 00:00:00 | |
| DM0DOS-11 | 2026-09-04 12:32:38 | 56.79919 | 5.11979 | 106° | 13km/h | 21088m | 3.7m/s | -50.1°C | 2.9% | 48.6hPa | 2.6V | 08:30:00 | 01:42:13 | 00:00:00 | |
| DL1XH-west | 2026-09-04 12:32:34 | 56.79922 | 5.11958 | 97° | 9km/h | 21064m | 5.3m/s | -50°C | 0% | 48.8hPa | 2.6V | 18:12:15 | 01:42:08 | 00:00:00 | |
| DM0DOS-11 | 2026-09-04 12:32:32 | 56.79928 | 5.11938 | 129° | 13km/h | 21039m | 5.1m/s | -49.8°C | 2.9% | 49hPa | 2.6V | 08:30:00 | 01:42:03 | 00:00:00 | |
| DL1XH-west | 2026-09-04 12:32:23 | 56.79938 | 5.11913 | 125° | 16km/h | 21019m | 5.3m/s | -49.6°C | 0% | 49.2hPa | 2.6V | 18:12:15 | 01:41:59 | 00:00:00 | |
| DM0DOS-11 | 2026-09-04 12:32:18 | 56.79950 | 5.11881 | 133° | 13km/h | 20988m | 4.4m/s | -49.5°C | 2.8% | 49.4hPa | 2.6V | 08:30:00 | 01:41:53 | 00:00:00 | |
| DL1XH-west | 2026-09-04 12:32:14 | 56.79959 | 5.11858 | 123° | 16km/h | 20968m | 5.3m/s | -49.4°C | 0% | 49.5hPa | 2.7V | 18:12:15 | 01:41:49 | 00:00:00 | |
| BIOWL1-15 | 2026-09-04 12:32:11 | 56.79967 | 5.11828 | 112° | 20km/h | 20948m | 4.1m/s | -49.4°C | 0% | 49.7hPa | 2.7V | 18:12:15 | 01:41:45 | 00:00:00 | |
| DL1XH-west | 2026-09-04 12:32:03 | 56.79985 | 5.11770 | 125° | 22km/h | 20914m | 4.8m/s | -49.2°C | 0% | 50hPa | 2.6V | 18:12:15 | 01:41:38 | 00:00:00 | |
| BIOWL1-15 | 2026-09-04 12:32:01 | 56.79994 | 5.11742 | 118° | 24km/h | 20898m | 4.7m/s | -49.3°C | 0% | 50.1hPa | 2.7V | 18:12:15 | 01:41:35 | 00:00:00 | |
| DM0DOS-11 | 2026-09-04 12:31:58 | 56.80000 | 5.11724 | 125° | 24km/h | 20888m | 4.3m/s | -49.2°C | 2.8% | 50.2hPa | 2.6V | 08:30:00 | 01:41:33 | 00:00:00 | |
| BIOWL9-15 | 2026-09-04 12:31:55 | 56.80012 | 5.11694 | 131° | 29km/h | 20873m | 4.4m/s | -49.2°C | 0.4% | 50.3hPa | 2.7V | 00:00:00 | 00:00:00 | 00:00:00 | |
| DM0DOS-11 | 2026-09-04 12:31:52 | 56.80051 | 5.11625 | 123° | 26km/h | 20838m | 5.3m/s | -49.2°C | 2.6% | 50.5hPa | 2.7V | 08:30:00 | 01:41:23 | 00:00:00 | |
| DL1XH-west | 2026-09-04 12:31:51 | 56.80030 | 5.11665 | 142° | 33km/h | 20858m | 5.4m/s | -49.2°C | 0% | 50.4hPa | 2.6V | 18:12:15 | 01:41:27 | 00:00:00 | |
| BIOWL1-15 | 2026-09-04 12:31:50 | 56.80036 | 5.11656 | 138° | 33km/h | 20853m | 5.6m/s | -49.2°C | 0% | 50.4hPa | 2.6V | 18:12:15 | 01:41:26 | 00:00:00 | |
| BIOWL1-15 | 2026-09-04 12:31:40 | 56.80070 | 5.11527 | 114° | 35km/h | 20795m | 4.4m/s | -50°C | 0% | 50.9hPa | 2.7V | 18:12:15 | 01:41:15 | 00:00:00 | |
| DM0DOS-11 | 2026-09-04 12:31:38 | 56.80078 | 5.11498 | 121° | 33km/h | 20786m | 5m/s | -50.1°C | 2.8% | 50.9hPa | 2.6V | 08:30:00 | 01:41:13 | 00:00:00 | |
| DJ2DS-15 | 2026-09-04 12:31:37 | 56.80077 | 5.11498 | 122° | 29km/h | 20786m | 5.0m/s | -50.1°C | 2.8% | 50.9hPa | 2.7V | 00:00:00 | 01:41:13 | 00:00:00 | |
| DM0DOS-11 | 2026-09-04 12:31:33 | 56.80094 | 5.11370 | 98° | 31km/h | 20738m | 4.6m/s | -50.7°C | 3% | 51.3hPa | 2.7V | 08:30:00 | 01:41:03 | 00:00:00 | |
| BIOWL1-15 | 2026-09-04 12:31:29 | 56.80093 | 5.11397 | 93° | 27km/h | 20748m | 5.3m/s | -50.7°C | 0% | 51.3hPa | 2.6V | 18:12:15 | 01:41:05 | 00:00:00 | |
| DJ2DS-15 | 2026-09-04 12:31:25 | 56.80097 | 5.11345 | 105° | 26km/h | 20728m | 3.9m/s | -50.7°C | 0.5% | 51.4hPa | 2.7V | 00:00:00 | 00:00:00 | 00:00:00 | |
| BIOWL9-15 | 2026-09-04 12:31:24 | 56.80101 | 5.11320 | 105° | 27km/h | 20719m | 6.0m/s | -50.8°C | 0.5% | 51.5hPa | 2.7V | 00:00:00 | 00:00:00 | 00:00:00 | |
| DM0DOS-11 | 2026-09-04 12:31:22 | 56.80109 | 5.11237 | 99° | 31km/h | 20690m | 5.7m/s | -50.8°C | 2.9% | 51.7hPa | 2.7V | 08:30:00 | 01:40:53 | 00:00:00 | |
| BIOWL1-15 | 2026-09-04 12:31:18 | 56.80107 | 5.11250 | 98° | 29km/h | 20695m | 3.9m/s | -50.8°C | 0% | 51.7hPa | 2.6V | 18:12:15 | 01:40:54 | 00:00:00 | |
| DJ2DS-15 | 2026-09-04 12:31:17 | 56.80108 | 5.11236 | 100° | 37km/h | 20690m | 5.7m/s | -50.7°C | 2.9% | 51.7hPa | 2.7V | 00:00:00 | 01:40:53 | 00:00:00 | |
| DM0DOS-11 | 2026-09-04 12:31:08 | 56.80128 | 5.11082 | 100° | 38km/h | 20641m | 5.7m/s | -51°C | 3% | 52.1hPa | 2.7V | 08:30:00 | 01:40:43 | 00:00:00 | |
| BIOWL1-15 | 2026-09-04 12:31:08 | 56.80126 | 5.11100 | 100° | 37km/h | 20646m | 3.6m/s | -50.9°C | 0% | 52.1hPa | 2.6V | 18:12:15 | 01:40:44 | 00:00:00 | |
| BIOWL1-15 | 2026-09-04 12:30:58 | 56.80153 | 5.10923 | 105° | 40km/h | 20598m | 4.7m/s | -51.4°C | 0% | 52.4hPa | 2.6V | 18:12:15 | 01:40:34 | 00:00:00 | |
| DL1XH-west | 2026-09-04 12:30:58 | 56.80155 | 5.10906 | 104° | 38km/h | 20594m | 3.6m/s | -51.4°C | 0% | 52.5hPa | 2.6V | 18:12:15 | 01:40:33 | 00:00:00 | |
| DJ2DS-15 | 2026-09-04 12:30:57 | 56.80155 | 5.10906 | 104° | 46km/h | 20594m | 3.5m/s | -51.4°C | 3.1% | 52.4hPa | 2.6V | 00:00:00 | 01:40:33 | 08:30:00 | |
| DM0DOS-11 | 2026-09-04 12:30:56 | 56.80166 | 5.10826 | 103° | 49km/h | 20574m | 5.6m/s | -51.4°C | 3.2% | 52.6hPa | 2.6V | 08:30:00 | 01:40:29 | 00:00:00 | |
| BIOWL1-15 | 2026-09-04 12:30:47 | 56.80186 | 5.10699 | 108° | 42km/h | 20546m | 4.7m/s | -51.1°C | 0% | 52.9hPa | 2.7V | 18:12:15 | 01:40:23 | 00:00:00 | |
| DL1XH-west | 2026-09-04 12:30:46 | 56.80189 | 5.10680 | 107° | 42km/h | 20541m | 5m/s | -51.1°C | 0% | 52.9hPa | 2.7V | 18:12:15 | 01:40:22 | 00:00:00 | |
| DM0DOS-11 | 2026-09-04 12:30:44 | 56.80198 | 5.10622 | 102° | 44km/h | 20526m | 4.4m/s | -51°C | 3% | 53.1hPa | 2.6V | 08:30:00 | 01:40:19 | 00:00:00 | |
| BIOWL1-15 | 2026-09-04 12:30:40 | 56.80212 | 5.10477 | 102° | 44km/h | 20492m | 5m/s | -51.4°C | 0% | 53.3hPa | 2.7V | 18:12:15 | 01:40:12 | 00:00:00 | |
| DM0DOS-11 | 2026-09-04 12:30:39 | 56.80220 | 5.10424 | 106° | 38km/h | 20477m | 4.2m/s | -51.4°C | 3.1% | 53.4hPa | 2.6V | 08:30:00 | 01:40:09 | 00:00:00 | |
| DL1XH-west | 2026-09-04 12:30:36 | 56.80215 | 5.10459 | 104° | 40km/h | 20487m | 4.6m/s | -51.4°C | 0% | 53.4hPa | 2.6V | 18:12:15 | 01:40:11 | 00:00:00 | |
| DM0DOS-11 | 2026-09-04 12:30:28 | 56.80240 | 5.10257 | 105° | 46km/h | 20429m | 3.2m/s | -51.3°C | 3.1% | 53.9hPa | 2.6V | 08:30:00 | 01:39:59 | 00:00:00 | |
| BIOWL1-15 | 2026-09-04 12:30:25 | 56.80235 | 5.10295 | 104° | 40km/h | 20438m | 5m/s | -51.4°C | 0% | 53.8hPa | 2.7V | 18:12:15 | 01:40:01 | 00:00:00 | |
| DL1XH-west | 2026-09-04 12:30:25 | 56.80238 | 5.10276 | 105° | 42km/h | 20433m | 5.4m/s | -51.4°C | 0% | 53.8hPa | 2.6V | 18:12:15 | 01:40:00 | 00:00:00 | |
| BIOWL9-15 | 2026-09-04 12:30:22 | 56.80247 | 5.10218 | 108° | 40km/h | 20420m | 5.0m/s | -51.3°C | 0.5% | 53.9hPa | 2.7V | 00:00:00 | 00:00:00 | 00:00:00 | |
| DJ2DS-15 | 2026-09-04 12:30:18 | 56.80258 | 5.10150 | 103° | 44km/h | 20401m | 3.7m/s | -51.1°C | 3.1% | 54.0hPa | 2.7V | 00:00:00 | 01:39:53 | 00:00:00 | |
| DM0DOS-11 | 2026-09-04 12:30:16 | 56.80263 | 5.10076 | 94° | 44km/h | 20381m | 5.2m/s | -51.1°C | 3.1% | 54.2hPa | 2.7V | 08:30:00 | 01:39:49 | 00:00:00 | |
| BIOWL1-15 | 2026-09-04 12:30:15 | 56.80286 | 5.09875 | 104° | 40km/h | 20334m | 4m/s | -51.2°C | 0% | 54.6hPa | 2.7V | 18:12:15 | 01:39:39 | 00:00:00 | |
| DL1XH-west | 2026-09-04 12:30:14 | 56.80262 | 5.10095 | 94° | 40km/h | 20387m | 4.4m/s | -51.1°C | 0% | 54.2hPa | 2.7V | 18:12:15 | 01:39:50 | 00:00:00 | |
| DM0DOS-11 | 2026-09-04 12:30:08 | 56.80288 | 5.09856 | 103° | 42km/h | 20330m | 4.9m/s | -51.2°C | 3.1% | 54.7hPa | 2.7V | 08:30:00 | 01:39:38 | 00:00:00 | |
| DL1XH-west | 2026-09-04 12:30:04 | 56.80288 | 5.09856 | 104° | 42km/h | 20330m | 4.9m/s | -51.2°C | 0% | 54.7hPa | 2.7V | 18:12:15 | 01:39:38 | 00:00:00 | |
| BIOWL1-15 | 2026-09-04 12:30:00 | 56.80293 | 5.09815 | 101° | 49km/h | 20321m | 3.8m/s | -51.2°C | 0% | 54.8hPa | 2.6V | 18:12:15 | 01:39:36 | 00:00:00 | |
| DJ2DS-15 | 2026-09-04 12:29:57 | 56.80299 | 5.09748 | 100° | 51km/h | 20307m | 3.9m/s | -51.1°C | 3.1% | 54.8hPa | 2.6V | 00:00:00 | 01:39:33 | 00:00:00 | |
| DM0DOS-11 | 2026-09-04 12:29:56 | 56.80311 | 5.09655 | 104° | 49km/h | 20288m | 4.9m/s | -51°C | 3.1% | 55hPa | 2.6V | 08:30:00 | 01:39:29 | 00:00:00 | |
| DL1XH-west | 2026-09-04 12:29:53 | 56.80317 | 5.09611 | 102° | 49km/h | 20278m | 5.3m/s | -50.9°C | 0% | 55.1hPa | 2.6V | 18:12:15 | 01:39:27 | 00:00:00 | |
| BIOWL1-15 | 2026-09-04 12:29:49 | 56.80321 | 5.09566 | 97° | 49km/h | 20269m | 4.1m/s | -50.8°C | 0% | 55.2hPa | 2.7V | 18:12:15 | 01:39:25 | 00:00:00 | |
| DM0DOS-11 | 2026-09-04 12:29:44 | 56.80323 | 5.09426 | 90° | 51km/h | 20240m | 5.6m/s | -50.7°C | 3% | 55.4hPa | 2.7V | 08:30:00 | 01:39:19 | 00:00:00 | |
| DL1XH-west | 2026-09-04 12:29:41 | 56.80326 | 5.09359 | 99° | 49km/h | 20227m | 4.7m/s | -50.8°C | 0% | 55.6hPa | 2.6V | 18:12:15 | 01:39:16 | 00:00:00 | |
| BIOWL1-15 | 2026-09-04 12:29:39 | 56.80328 | 5.09336 | 101° | 51km/h | 20223m | 3.9m/s | -50.8°C | 0% | 55.6hPa | 2.6V | 18:12:15 | 01:39:15 | 00:00:00 | |
| DM0DOS-11 | 2026-09-04 12:29:38 | 56.80336 | 5.09196 | 93° | 53km/h | 20196m | 4.3m/s | -50.7°C | 3% | 55.8hPa | 2.7V | 08:30:00 | 01:39:09 | 00:00:00 | |
| DL1XH-west | 2026-09-04 12:29:30 | 56.80337 | 5.09105 | 93° | 46km/h | 20177m | 5.4m/s | -50.6°C | 0% | 56hPa | 2.7V | 18:12:15 | 01:39:05 | 00:00:00 | |
| BIOWL1-15 | 2026-09-04 12:29:30 | 56.80338 | 5.09084 | 96° | 46km/h | 20173m | 3.9m/s | -50.5°C | 0% | 56hPa | 2.7V | 18:12:15 | 01:39:04 | 00:00:00 | |
| DL1XH-west | 2026-09-04 12:29:20 | 56.80347 | 5.08925 | 93° | 42km/h | 20137m | 4.9m/s | -50.3°C | 0% | 56.4hPa | 2.6V | 18:12:15 | 01:38:56 | 00:00:00 | |
| BIOWL1-15 | 2026-09-04 12:29:18 | 56.80347 | 5.08888 | 91° | 40km/h | 20128m | 4.5m/s | -50.3°C | 0% | 56.4hPa | 2.7V | 18:12:15 | 01:38:54 | 00:00:00 | |
| DM0DOS-11 | 2026-09-04 12:29:17 | 56.80350 | 5.08785 | 93° | 47km/h | 20103m | 5.2m/s | -50.1°C | 2.9% | 56.6hPa | 2.6V | 08:30:00 | 01:38:49 | 00:00:00 | |
| DL1XH-west | 2026-09-04 12:29:10 | 56.80353 | 5.08718 | 93° | 47km/h | 20089m | 5.3m/s | -50°C | 0% | 56.7hPa | 2.7V | 18:12:15 | 01:38:46 | 00:00:00 | |
| BIOWL1-15 | 2026-09-04 12:29:07 | 56.80353 | 5.08658 | 90° | 42km/h | 20075m | 4.8m/s | -49.9°C | 0% | 56.9hPa | 2.7V | 18:12:15 | 01:38:43 | 00:00:00 | |
| DM0DOS-11 | 2026-09-04 12:29:07 | 56.80352 | 5.08583 | 85° | 40km/h | 20057m | 4.2m/s | -49.9°C | 2.8% | 57hPa | 2.7V | 08:30:00 | 01:38:39 | 00:00:00 | |
| DL1XH-west | 2026-09-04 12:29:00 | 56.80351 | 5.08484 | 91° | 42km/h | 20034m | 4.3m/s | -50.1°C | 0% | 57.2hPa | 2.6V | 18:12:15 | 01:38:34 | 00:00:00 | |
| BIOWL1-15 | 2026-09-04 12:28:56 | 56.80351 | 5.08365 | 86° | 40km/h | 20006m | 4.7m/s | -50.1°C | 0% | 57.5hPa | 2.7V | 18:12:15 | 01:38:28 | 00:00:00 | |
| DL1XH-west | 2026-09-04 12:28:49 | 56.80347 | 5.08288 | 84° | 42km/h | 19987m | 4m/s | -50.1°C | 0% | 57.6hPa | 2.7V | 18:12:15 | 01:38:24 | 00:00:00 | |
| BIOWL1-15 | 2026-09-04 12:28:45 | 56.80344 | 5.08224 | 87° | 51km/h | 19974m | 3.9m/s | -50.3°C | 0% | 57.8hPa | 2.5V | 18:12:15 | 01:38:21 | 00:00:00 | |
| DM0DOS-11 | 2026-09-04 12:28:45 | 56.80344 | 5.08177 | 87° | 51km/h | 19964m | 4m/s | -50.2°C | 2.9% | 57.8hPa | 2.6V | 08:30:00 | 01:38:19 | 00:00:00 | |
| DL1XH-west | 2026-09-04 12:28:38 | 56.80345 | 5.08027 | 91° | 51km/h | 19935m | 4.7m/s | -50.6°C | 0% | 58.1hPa | 2.7V | 18:12:15 | 01:38:13 | 00:00:00 | |
| BIOWL1-15 | 2026-09-04 12:28:34 | 56.80345 | 5.07956 | 87° | 51km/h | 19921m | 4.3m/s | -50.6°C | 0% | 58.2hPa | 2.6V | 18:12:15 | 01:38:10 | 00:00:00 | |
| DM0DOS-11 | 2026-09-04 12:28:33 | 56.80342 | 5.07890 | 83° | 47km/h | 19907m | 5.4m/s | -50.6°C | 2.9% | 58.4hPa | 2.7V | 08:30:00 | 01:38:07 | 00:00:00 | |
| DL1XH-west | 2026-09-04 12:28:28 | 56.80338 | 5.07777 | 90° | 49km/h | 19882m | 5m/s | -50.5°C | 0% | 58.6hPa | 2.7V | 18:12:15 | 01:38:02 | 00:00:00 | |
| BIOWL1-15 | 2026-09-04 12:28:24 | 56.80338 | 5.07731 | 90° | 51km/h | 19873m | 3.8m/s | -50.5°C | 0% | 58.6hPa | 2.6V | 18:12:15 | 01:38:00 | 00:00:00 | |
| DM0DOS-11 | 2026-09-04 12:28:22 | 56.80336 | 5.07660 | 81° | 55km/h | 19859m | 4.4m/s | -50.5°C | 3% | 58.8hPa | 2.7V | 08:30:00 | 01:37:57 | 00:00:00 | |
| DL1XH-west | 2026-09-04 12:28:16 | 56.80323 | 5.07527 | 81° | 60km/h | 19834m | 5.7m/s | -50.7°C | 0% | 59hPa | 2.7V | 18:12:15 | 01:37:52 | 00:00:00 | |
| BIOWL1-15 | 2026-09-04 12:28:13 | 56.80316 | 5.07422 | 83° | 55km/h | 19814m | 4.2m/s | -50.8°C | 0% | 59.2hPa | 2.6V | 18:12:15 | 01:37:48 | 00:00:00 | |
| DM0DOS-11 | 2026-09-04 12:28:12 | 56.80315 | 5.07397 | 83° | 55km/h | 19809m | 5.6m/s | -50.8°C | 3% | 59.2hPa | 2.7V | 08:30:00 | 01:37:47 | 00:00:00 | |
| DL1XH-west | 2026-09-04 12:28:06 | 56.80290 | 5.07209 | 70° | 64km/h | 19775m | 5.6m/s | -50.6°C | 0% | 59.6hPa | 2.7V | 18:12:15 | 01:37:40 | 00:00:00 | |
| BIOWL1-15 | 2026-09-04 12:28:03 | 56.80285 | 5.07182 | 69° | 64km/h | 19769m | 4.9m/s | -50.6°C | 0% | 59.6hPa | 2.7V | 18:12:15 | 01:37:39 | 00:00:00 | |
| DL1XH-west | 2026-09-04 12:27:55 | 56.80247 | 5.06953 | 72° | 53km/h | 19725m | 5.8m/s | -50.3°C | 0% | 60hPa | 2.7V | 18:12:15 | 01:37:30 | 00:00:00 | |
| BIOWL1-15 | 2026-09-04 12:27:55 | 56.80243 | 5.06930 | 69° | 53km/h | 19720m | 4.9m/s | -50.2°C | 0% | 60.1hPa | 2.6V | 18:12:15 | 01:37:29 | 00:00:00 | |
| DL1XH-west | 2026-09-04 12:27:44 | 56.80200 | 5.06704 | 77° | 55km/h | 19676m | 5.5m/s | -50°C | 0% | 60.5hPa | 2.7V | 18:12:15 | 01:37:20 | 00:00:00 | |
| BIOWL1-15 | 2026-09-04 12:27:42 | 56.80190 | 5.06634 | 73° | 53km/h | 19661m | 5m/s | -49.9°C | 0% | 60.6hPa | 2.7V | 18:12:15 | 01:37:17 | 00:00:00 | |
| DL1XH-west | 2026-09-04 12:27:34 | 56.80152 | 5.06450 | 71° | 53km/h | 19622m | 4.4m/s | -49.9°C | 0% | 61hPa | 2.7V | 18:12:15 | 01:37:09 | 00:00:00 | |
| DM0DOS-11 | 2026-09-04 12:27:32 | 56.80137 | 5.06335 | 79° | 46km/h | 19596m | 3.9m/s | -49.7°C | 2.9% | 61.2hPa | 2.7V | 08:30:00 | 01:37:04 | 00:00:00 | |
| BIOWL1-15 | 2026-09-04 12:27:30 | 56.80141 | 5.06379 | 78° | 51km/h | 19606m | 5.3m/s | -49.8°C | 0% | 61.1hPa | 2.7V | 18:12:15 | 01:37:06 | 00:00:00 | |
| DL1XH-west | 2026-09-04 12:27:23 | 56.80121 | 5.06227 | 71° | 46km/h | 19572m | 4.7m/s | -49.6°C | 0% | 61.5hPa | 2.7V | 18:12:15 | 01:36:59 | 00:00:00 | |
| DM0DOS-11 | 2026-09-04 12:27:22 | 56.80097 | 5.06103 | 71° | 46km/h | 19543m | 4.3m/s | -49.4°C | 2.8% | 61.7hPa | 2.5V | 08:30:00 | 01:36:53 | 00:00:00 | |
| DL1XH-west | 2026-09-04 12:27:13 | 56.80084 | 5.06020 | 74° | 46km/h | 19522m | 4.9m/s | -49.3°C | 0% | 61.9hPa | 2.7V | 18:12:15 | 01:36:49 | 00:00:00 | |
| DJ2DS-15 | 2026-09-04 12:27:13 | 56.80081 | 5.06000 | 73° | 46km/h | 19518m | 4.8m/s | -49.3°C | 0.4% | 62.0hPa | 2.7V | 00:00:00 | 00:00:00 | 00:00:00 | |
| DM0DOS-11 | 2026-09-04 12:27:12 | 56.80064 | 5.05899 | 71° | 46km/h | 19493m | 5.5m/s | -49.1°C | 2.6% | 62.2hPa | 2.7V | 08:30:00 | 01:36:43 | 00:00:00 | |
| BIOWL1-15 | 2026-09-04 12:27:05 | 56.80049 | 5.05823 | 69° | 42km/h | 19473m | 3.9m/s | -49.4°C | 0% | 62.4hPa | 2.7V | 18:12:15 | 01:36:39 | 00:00:00 | |
| DL1XH-west | 2026-09-04 12:27:03 | 56.80045 | 5.05805 | 71° | 42km/h | 19469m | 5.6m/s | -49.6°C | 0% | 62.4hPa | 2.7V | 18:12:15 | 01:36:38 | 00:00:00 | |
| DM0DOS-11 | 2026-09-04 12:27:02 | 56.80028 | 5.05713 | 67° | 40km/h | 19445m | 4.5m/s | -50.1°C | 2.9% | 62.7hPa | 2.7V | 08:30:00 | 01:36:33 | 00:00:00 | |
| BIOWL1-15 | 2026-09-04 12:26:54 | 56.80015 | 5.05659 | 65° | 42km/h | 19432m | 5.4m/s | -50.3°C | 0% | 62.8hPa | 2.6V | 18:12:15 | 01:36:30 | 00:00:00 | |
| DL1XH-west | 2026-09-04 12:26:53 | 56.80011 | 5.05642 | 66° | 40km/h | 19426m | 4.7m/s | -50.2°C | 0% | 62.8hPa | 2.7V | 18:12:15 | 01:36:29 | 00:00:00 | |
| BIOWL9-15 | 2026-09-04 12:26:45 | 56.79978 | 5.05464 | 76° | 51km/h | 19382m | 4.9m/s | -50.5°C | 0.5% | 63.3hPa | 2.7V | 00:00:00 | 00:00:00 | 00:00:00 | |
| BIOWL1-15 | 2026-09-04 12:26:43 | 56.79975 | 5.05442 | 76° | 49km/h | 19377m | 5.2m/s | -50.4°C | 0% | 63.3hPa | 2.7V | 18:12:15 | 01:36:19 | 00:00:00 | |
| DL1XH-west | 2026-09-04 12:26:43 | 56.79972 | 5.05421 | 74° | 47km/h | 19372m | 4.1m/s | -50.5°C | 0% | 63.4hPa | 2.7V | 18:12:15 | 01:36:18 | 00:00:00 | |
| DM0DOS-11 | 2026-09-04 12:26:38 | 56.79951 | 5.05229 | 89° | 55km/h | 19326m | 5.4m/s | -50.9°C | 3.1% | 63.8hPa | 2.6V | 08:30:00 | 01:36:09 | 00:00:00 | |
| BIOWL1-15 | 2026-09-04 12:26:34 | 56.79951 | 5.05204 | 90° | 55km/h | 19321m | 4.8m/s | -50.9°C | 0% | 63.9hPa | 2.7V | 18:12:15 | 01:36:08 | 00:00:00 | |
| DL1XH-west | 2026-09-04 12:26:32 | 56.79951 | 5.05179 | 90° | 55km/h | 19316m | 5m/s | -50.9°C | 0% | 63.9hPa | 2.7V | 18:12:15 | 01:36:07 | 00:00:00 | |
| DM0DOS-11 | 2026-09-04 12:26:28 | 56.79945 | 5.04973 | 83° | 53km/h | 19274m | 5.6m/s | -50.9°C | 3% | 64.3hPa | 2.7V | 08:30:00 | 01:35:59 | 00:00:00 | |
| BIOWL1-15 | 2026-09-04 12:26:21 | 56.79943 | 5.04925 | 84° | 51km/h | 19265m | 4m/s | -50.8°C | 0% | 64.4hPa | 2.6V | 18:12:15 | 01:35:57 | 00:00:00 | |
| DL1XH-west | 2026-09-04 12:26:21 | 56.79941 | 5.04901 | 84° | 53km/h | 19260m | 5.8m/s | -50.8°C | 0% | 64.5hPa | 2.6V | 18:12:15 | 01:35:56 | 00:00:00 | |
| DM0DOS-11 | 2026-09-04 12:26:18 | 56.79921 | 5.04711 | 77° | 47km/h | 19219m | 4.7m/s | -50.5°C | 3% | 64.9hPa | 2.7V | 08:30:00 | 01:35:48 | 00:00:00 | |
| BIOWL1-15 | 2026-09-04 12:26:11 | 56.79908 | 5.04622 | 72° | 53km/h | 19200m | 4.9m/s | -50.3°C | 0% | 0hPa | 2.7V | 18:12:15 | 01:35:44 | 00:00:00 | |
| DL1XH-west | 2026-09-04 12:26:10 | 56.79912 | 5.04645 | 74° | 53km/h | 19204m | 3.9m/s | -50.3°C | 0% | 65hPa | 2.6V | 18:12:15 | 01:35:45 | 00:00:00 | |
| DM0DOS-11 | 2026-09-04 12:26:07 | 56.79881 | 5.04486 | 67° | 51km/h | 19170m | 4.8m/s | -50.1°C | 2.9% | 65.4hPa | 2.7V | 08:30:00 | 01:35:38 | 00:00:00 | |
| BIOWL1-15 | 2026-09-04 12:26:03 | 56.79871 | 5.04443 | 69° | 53km/h | 19160m | 5.7m/s | -50°C | 0% | 0hPa | 2.7V | 18:12:15 | 01:35:36 | 00:00:00 | |
| DL1XH-west | 2026-09-04 12:25:59 | 56.79861 | 5.04397 | 69° | 55km/h | 19150m | 5.1m/s | -49.9°C | 0% | 65.6hPa | 2.6V | 18:12:15 | 01:35:34 | 00:00:00 | |
| DJ2DS-15 | 2026-09-04 12:25:57 | 56.79856 | 5.04373 | 70° | 55km/h | 19145m | 4.9m/s | -49.9°C | 2.8% | 65.6hPa | 2.7V | 00:00:00 | 01:35:33 | 00:00:00 | |
| DM0DOS-11 | 2026-09-04 12:25:56 | 56.79834 | 5.04255 | 70° | 51km/h | 19120m | 4.3m/s | -50°C | 2.8% | 65.9hPa | 2.5V | 08:30:00 | 01:35:28 | 00:00:00 | |
| BIOWL1-15 | 2026-09-04 12:25:51 | 56.79820 | 5.04189 | 66° | 53km/h | 19105m | 4.4m/s | -50.3°C | 0% | 0hPa | 2.7V | 18:12:15 | 01:35:25 | 00:00:00 | |
| DL1XH-west | 2026-09-04 12:25:48 | 56.79808 | 5.04144 | 64° | 53km/h | 19095m | 4.3m/s | -50.4°C | 0% | 66.1hPa | 2.6V | 18:12:15 | 01:35:23 | 00:00:00 | |
| BIOWL1-15 | 2026-09-04 12:25:41 | 56.79759 | 5.03957 | 67° | 55km/h | 19058m | 5.1m/s | 0°C | 0% | 0hPa | 2.6V | 18:12:15 | 01:35:15 | 00:00:00 | |
| DL1XH-west | 2026-09-04 12:25:37 | 56.79749 | 5.03912 | 66° | 51km/h | 19048m | 5.3m/s | -50.8°C | 0% | 66.6hPa | 2.6V | 18:12:15 | 01:35:13 | 00:00:00 | |
| BIOWL1-15 | 2026-09-04 12:25:28 | 56.79686 | 5.03710 | 57° | 62km/h | 19005m | 4.3m/s | 0°C | 0% | 0hPa | 2.6V | 18:12:15 | 01:35:04 | 00:00:00 | |
| DL1XH-west | 2026-09-04 12:25:27 | 56.79669 | 5.03665 | 56° | 55km/h | 18995m | 5.2m/s | -50.8°C | 0% | 67.2hPa | 2.6V | 18:12:15 | 01:35:02 | 00:00:00 | |
| DM0DOS-11 | 2026-09-04 12:25:24 | 56.79641 | 5.03592 | 53° | 47km/h | 18974m | 4.6m/s | -50.8°C | 3.1% | 67.4hPa | 2.6V | 08:30:00 | 01:34:58 | 00:00:00 | |
| DM0DOS-11 | 2026-09-04 12:25:17 | 56.79562 | 5.03410 | 61° | 47km/h | 18924m | 4.8m/s | -50.6°C | 2.9% | 67.9hPa | 2.6V | 08:30:00 | 01:34:48 | 00:00:00 | |
| DL1XH-west | 2026-09-04 12:25:17 | 56.79594 | 5.03484 | 49° | 53km/h | 18944m | 5.8m/s | -50.8°C | 0% | 67.7hPa | 2.7V | 18:12:15 | 01:34:52 | 00:00:00 | |
| DM0DOS-11 | 2026-09-04 12:25:07 | 56.79509 | 5.03250 | 48° | 40km/h | 18873m | 4.9m/s | -50.2°C | 3% | 68.4hPa | 2.6V | 08:30:00 | 01:34:38 | 00:00:00 | |
| DL1XH-west | 2026-09-04 12:25:06 | 56.79522 | 5.03276 | 48° | 38km/h | 18884m | 4.6m/s | -50.2°C | 0% | 68.3hPa | 2.7V | 18:12:15 | 01:34:40 | 00:00:00 | |
| DM0DOS-11 | 2026-09-04 12:24:57 | 56.79451 | 5.03098 | 57° | 44km/h | 18819m | 6.4m/s | -50.3°C | 2.9% | 69hPa | 2.6V | 08:30:00 | 01:34:28 | 00:00:00 | |
| DL1XH-west | 2026-09-04 12:24:54 | 56.79428 | 5.03040 | 50° | 35km/h | 18798m | 5.2m/s | -50.2°C | 0% | 69.2hPa | 2.7V | 18:12:15 | 01:34:24 | 00:00:00 | |
| DJ2DS-15 | 2026-09-04 12:24:48 | 56.79428 | 5.03040 | 49° | 33km/h | 18798m | 5.2m/s | -50.2°C | 0.5% | 69.2hPa | 2.7V | 00:00:00 | 00:00:00 | 00:00:00 | |
| DM0DOS-11 | 2026-09-04 12:24:43 | 56.79399 | 5.02969 | 51° | 33km/h | 18769m | 4.5m/s | -50.1°C | 2.9% | 69.5hPa | 2.7V | 08:30:00 | 01:34:18 | 00:00:00 | |
| DL1XH-west | 2026-09-04 12:24:40 | 56.79389 | 5.02944 | 58° | 33km/h | 18759m | 3.9m/s | -50.1°C | 0% | 69.7hPa | 2.6V | 18:12:15 | 01:34:16 | 00:00:00 | |
| DL1XH-west | 2026-09-04 12:24:30 | 56.79343 | 5.02847 | 60° | 26km/h | 18711m | 4.2m/s | -50.3°C | 0% | 70.2hPa | 2.6V | 18:12:15 | 01:34:06 | 00:00:00 | |
| DL1XH-west | 2026-09-04 12:24:19 | 56.79301 | 5.02707 | 62° | 33km/h | 18657m | 3.9m/s | -50.1°C | 0% | 70.7hPa | 2.6V | 18:12:15 | 01:33:55 | 00:00:00 | |
| DM0DOS-11 | 2026-09-04 12:24:18 | 56.79293 | 5.02679 | 61° | 35km/h | 18647m | 4.3m/s | -50.1°C | 2.9% | 70.8hPa | 2.7V | 08:30:00 | 01:33:53 | 00:00:00 | |
| DL1XH-west | 2026-09-04 12:24:09 | 56.79259 | 5.02557 | 61° | 31km/h | 18602m | 4m/s | -50.1°C | 0% | 71.4hPa | 2.6V | 18:12:15 | 01:33:44 | 00:00:00 | |
| DL1XH-west | 2026-09-04 12:23:58 | 56.79234 | 5.02420 | 72° | 35km/h | 18555m | 5.5m/s | -50°C | 0% | 71.8hPa | 2.7V | 18:12:15 | 01:33:34 | 00:00:00 | |
| DM0DOS-11 | 2026-09-04 12:23:57 | 56.79220 | 5.02334 | 76° | 35km/h | 18525m | 3.2m/s | -50°C | 2.8% | 72.2hPa | 2.7V | 08:30:00 | 01:33:28 | 00:00:00 | |
| DL1XH-west | 2026-09-04 12:23:47 | 56.79211 | 5.02255 | 76° | 38km/h | 18502m | 4.3m/s | -50.2°C | 0% | 72.4hPa | 2.7V | 18:12:15 | 01:33:23 | 00:00:00 | |
| DL1XH-west | 2026-09-04 12:23:37 | 56.79198 | 5.02070 | 84° | 42km/h | 18454m | 3.9m/s | -50.4°C | 0% | 73hPa | 2.6V | 18:12:15 | 01:33:13 | 00:00:00 | |
| DL1XH-west | 2026-09-04 12:23:26 | 56.79184 | 5.01852 | 85° | 47km/h | 18401m | 4.7m/s | -50.9°C | 0% | 73.5hPa | 2.7V | 18:12:15 | 01:33:02 | 00:00:00 | |
| DL1XH-west | 2026-09-04 12:23:16 | 56.79179 | 5.01638 | 89° | 42km/h | 18352m | 3.8m/s | -50.5°C | 0% | 74.1hPa | 2.6V | 18:12:15 | 01:32:52 | 00:00:00 | |
| DM0DOS-11 | 2026-09-04 12:23:12 | 56.79183 | 5.01506 | 90° | 37km/h | 18319m | 4.5m/s | -50.2°C | 3% | 74.5hPa | 2.7V | 08:30:00 | 01:32:45 | 00:00:00 | |
| DL1XH-west | 2026-09-04 12:23:06 | 56.79181 | 5.01456 | 79° | 37km/h | 18305m | 3.6m/s | -50.2°C | 0% | 74.7hPa | 2.7V | 18:12:15 | 01:32:42 | 00:00:00 | |
| DM0DOS-11 | 2026-09-04 12:23:01 | 56.79174 | 5.01296 | 87° | 38km/h | 18256m | 4.4m/s | -49.8°C | 2.9% | 75.2hPa | 2.6V | 08:30:00 | 01:32:32 | 00:00:00 | |
| DL1XH-west | 2026-09-04 12:22:56 | 56.79173 | 5.01279 | 85° | 37km/h | 18251m | 4.9m/s | -49.8°C | 0% | 75.2hPa | 2.7V | 18:12:15 | 01:32:31 | 00:00:00 | |
| DL1XH-west | 2026-09-04 12:22:46 | 56.79161 | 5.01129 | 88° | 33km/h | 18203m | 3.9m/s | -49.4°C | 0% | 75.9hPa | 2.6V | 18:12:15 | 01:32:21 | 00:00:00 | |
| DM0DOS-11 | 2026-09-04 12:22:45 | 56.79160 | 5.01114 | 87° | 35km/h | 18198m | 5.4m/s | -49.4°C | 2.9% | 75.9hPa | 2.7V | 08:30:00 | 01:32:20 | 00:00:00 | |
| DM0DOS-11 | 2026-09-04 12:22:39 | 56.79147 | 5.00981 | 65° | 24km/h | 18152m | 4.5m/s | -49°C | 2.7% | 76.4hPa | 2.7V | 08:30:00 | 01:32:10 | 00:00:00 | |
| DL1XH-west | 2026-09-04 12:22:35 | 56.79149 | 5.00991 | 69° | 22km/h | 18157m | 3.7m/s | -49°C | 0% | 76.4hPa | 2.6V | 18:12:15 | 01:32:11 | 00:00:00 | |
| DM0DOS-11 | 2026-09-04 12:22:26 | 56.79124 | 5.00857 | 58° | 22km/h | 18102m | 5.4m/s | -48.7°C | 2.7% | 77hPa | 2.7V | 08:30:00 | 01:31:59 | 00:00:00 | |
| DL1XH-west | 2026-09-04 12:22:24 | 56.79127 | 5.00866 | 62° | 22km/h | 18107m | 3.6m/s | -48.7°C | 0% | 76.9hPa | 2.7V | 18:12:15 | 01:32:00 | 00:00:00 | |
| DL1XH-west | 2026-09-04 12:22:14 | 56.79098 | 5.00771 | 66° | 26km/h | 18062m | 3.7m/s | -48.5°C | 0% | 77.5hPa | 2.7V | 18:12:15 | 01:31:50 | 00:00:00 | |
| DM0DOS-11 | 2026-09-04 12:22:11 | 56.79085 | 5.00722 | 61° | 22km/h | 18042m | 3.6m/s | -48.5°C | 2.7% | 77.7hPa | 2.6V | 08:30:00 | 01:31:45 | 00:00:00 | |
| DL1XH-west | 2026-09-04 12:22:03 | 56.79067 | 5.00667 | 58° | 24km/h | 18016m | 4.9m/s | -48.8°C | 0% | 78hPa | 2.7V | 18:12:15 | 01:31:39 | 00:00:00 | |
| DM0DOS-11 | 2026-09-04 12:22:00 | 56.79053 | 5.00636 | 41° | 18km/h | 17998m | 4.1m/s | -48.9°C | 2.8% | 78.2hPa | 2.7V | 08:30:00 | 01:31:35 | 00:00:00 | |
| DL1XH-west | 2026-09-04 12:21:52 | 56.79029 | 5.00580 | 67° | 24km/h | 17963m | 3.5m/s | -48.6°C | 0% | 78.7hPa | 2.7V | 18:12:15 | 01:31:27 | 00:00:00 | |
| DM0DOS-11 | 2026-09-04 12:21:50 | 56.79019 | 5.00544 | 58° | 20km/h | 17946m | 4.8m/s | -48.6°C | 2.7% | 78.8hPa | 2.7V | 08:30:00 | 01:31:23 | 00:00:00 | |
| DJ2DS-15 | 2026-09-04 12:21:48 | 56.79019 | 5.00544 | 58° | 18km/h | 17946m | 4.9m/s | -48.6°C | 0.5% | 78.8hPa | 2.6V | 00:00:00 | 00:00:00 | 00:00:00 | |
| DL1XH-west | 2026-09-04 12:21:41 | 56.79011 | 5.00499 | 78° | 20km/h | 17919m | 4.4m/s | -48.5°C | 0% | 79.2hPa | 2.6V | 18:12:15 | 01:31:17 | 00:00:00 | |
| DL1XH-west | 2026-09-04 12:21:31 | 56.78994 | 5.00391 | 83° | 22km/h | 17865m | 3.7m/s | -48.2°C | 0% | 79.8hPa | 2.5V | 18:12:15 | 01:31:05 | 00:00:00 | |
| DM0DOS-11 | 2026-09-04 12:21:25 | 56.78988 | 5.00264 | 77° | 26km/h | 17819m | 4.2m/s | -47.9°C | 2.6% | 80.4hPa | 2.6V | 08:30:00 | 01:30:55 | 00:00:00 | |
| DL1XH-west | 2026-09-04 12:21:19 | 56.78987 | 5.00264 | 77° | 26km/h | 17819m | 4.3m/s | -47.9°C | 0% | 80.4hPa | 2.6V | 18:12:15 | 01:30:55 | 00:00:00 | |
| DL1XH-west | 2026-09-04 12:21:09 | 56.78983 | 5.00134 | 93° | 33km/h | 17774m | 4.2m/s | -47.8°C | 0% | 80.9hPa | 2.6V | 18:12:15 | 01:30:45 | 00:00:00 | |
| DL1XH-west | 2026-09-04 12:20:58 | 56.78983 | 4.99976 | 98° | 35km/h | 17725m | 3.4m/s | -47.6°C | 0% | 81.6hPa | 2.6V | 18:12:15 | 01:30:34 | 00:00:00 | |
| DJ2DS-15 | 2026-09-04 12:20:57 | 56.78983 | 4.99960 | 94° | 38km/h | 17720m | 5.3m/s | -47.5°C | 2.6% | 81.6hPa | 2.7V | 00:00:00 | 01:30:33 | 00:00:00 | |
| DM0DOS-11 | 2026-09-04 12:20:51 | 56.78998 | 4.99767 | 93° | 37km/h | 17671m | 4.6m/s | -47.8°C | 2.5% | 82.2hPa | 2.7V | 08:30:00 | 01:30:22 | 00:00:00 | |
| DL1XH-west | 2026-09-04 12:20:48 | 56.78996 | 4.99801 | 100° | 37km/h | 17680m | 3.9m/s | -47.7°C | 0% | 82.2hPa | 2.7V | 18:12:15 | 01:30:24 | 00:00:00 | |
| DL1XH-west | 2026-09-04 12:20:37 | 56.79001 | 4.99608 | 98° | 44km/h | 17629m | 3.5m/s | -48.3°C | 0% | 82.8hPa | 2.7V | 18:12:15 | 01:30:13 | 00:00:00 | |
| DJ2DS-15 | 2026-09-04 12:20:37 | 56.79001 | 4.99608 | 98° | 55km/h | 17629m | 3.5m/s | -48.2°C | 2.6% | 82.7hPa | 2.6V | 00:00:00 | 01:30:13 | 00:00:00 | |
| DM0DOS-11 | 2026-09-04 12:20:32 | 56.79013 | 4.99359 | 96° | 53km/h | 17581m | 3.4m/s | -48.1°C | 2.6% | 83.4hPa | 2.6V | 08:30:00 | 01:30:03 | 00:00:00 | |
| DL1XH-west | 2026-09-04 12:20:27 | 56.79013 | 4.99359 | 97° | 53km/h | 17581m | 3.4m/s | -48.2°C | 0% | 83.4hPa | 2.6V | 18:12:15 | 01:30:03 | 00:00:00 | |
| DM0DOS-11 | 2026-09-04 12:20:18 | 56.79025 | 4.99095 | 91° | 60km/h | 17537m | 3.9m/s | -48.5°C | 2.6% | 84hPa | 2.6V | 08:30:00 | 01:29:53 | 00:00:00 | |
| DL1XH-west | 2026-09-04 12:20:17 | 56.79026 | 4.99068 | 92° | 58km/h | 17533m | 3.7m/s | -48.6°C | 0% | 84hPa | 2.7V | 18:12:15 | 01:29:52 | 00:00:00 | |
| DM0DOS-11 | 2026-09-04 12:20:12 | 56.79030 | 4.98821 | 84° | 64km/h | 17493m | 4.3m/s | -49.5°C | 2.7% | 84.5hPa | 2.6V | 08:30:00 | 01:29:43 | 00:00:00 | |
| DL1XH-west | 2026-09-04 12:20:07 | 56.79028 | 4.98792 | 81° | 64km/h | 17490m | 3.5m/s | -49.5°C | 0% | 84.5hPa | 2.6V | 18:12:15 | 01:29:42 | 00:00:00 | |
| DM0DOS-11 | 2026-09-04 12:20:01 | 56.78998 | 4.98510 | 73° | 58km/h | 17446m | 4m/s | -50.1°C | 2.8% | 85.1hPa | 2.7V | 08:30:00 | 01:29:32 | 00:00:00 | |
| DL1XH-west | 2026-09-04 12:19:56 | 56.78998 | 4.98510 | 74° | 58km/h | 17446m | 4m/s | -50.2°C | 0% | 85.1hPa | 2.7V | 18:12:15 | 01:29:32 | 00:00:00 | |
| DM0DOS-11 | 2026-09-04 12:19:50 | 56.78934 | 4.98198 | 74° | 64km/h | 17398m | 5.6m/s | -50.6°C | 3% | 85.8hPa | 2.7V | 08:30:00 | 01:29:21 | 00:00:00 | |
| DL1XH-west | 2026-09-04 12:19:46 | 56.78938 | 4.98227 | 72° | 66km/h | 17403m | 3.2m/s | -50.7°C | 0% | 85.7hPa | 2.6V | 18:12:15 | 01:29:22 | 00:00:00 | |
| DM0DOS-11 | 2026-09-04 12:19:39 | 56.78888 | 4.97928 | 75° | 60km/h | 17352m | 4.7m/s | -50.2°C | 3% | 86.4hPa | 2.6V | 08:30:00 | 01:29:11 | 00:00:00 | |
| DL1XH-west | 2026-09-04 12:19:36 | 56.78888 | 4.97928 | 76° | 60km/h | 17352m | 4.7m/s | -50.2°C | 0% | 86.4hPa | 2.6V | 18:12:15 | 01:29:11 | 00:00:00 | |
| DM0DOS-11 | 2026-09-04 12:19:27 | 56.78842 | 4.97599 | 71° | 60km/h | 17289m | 4.1m/s | -49.6°C | 2.9% | 87.2hPa | 2.6V | 08:30:00 | 01:28:58 | 00:00:00 | |
| DL1XH-west | 2026-09-04 12:19:24 | 56.78851 | 4.97654 | 75° | 62km/h | 17299m | 4.1m/s | -49.7°C | 0% | 87.1hPa | 2.7V | 18:12:15 | 01:29:00 | 00:00:00 | |
| DJ2DS-15 | 2026-09-04 12:19:24 | 56.78846 | 4.97626 | 74° | 60km/h | 17294m | 5.4m/s | -49.7°C | 0.6% | 87.1hPa | 2.7V | 00:00:00 | 00:00:00 | 00:00:00 | |
| DM0DOS-11 | 2026-09-04 12:19:17 | 56.78810 | 4.97356 | 75° | 57km/h | 17245m | 5.2m/s | -49.2°C | 2.9% | 87.8hPa | 2.7V | 08:30:00 | 01:28:48 | 00:00:00 | |
| DL1XH-west | 2026-09-04 12:19:14 | 56.78815 | 4.97405 | 80° | 53km/h | 17254m | 3.5m/s | -49.2°C | 0% | 87.7hPa | 2.6V | 18:12:15 | 01:28:50 | 00:00:00 | |
| DL1XH-west | 2026-09-04 12:19:04 | 56.78777 | 4.97113 | 78° | 57km/h | 17206m | 4m/s | -48.8°C | 0% | 88.3hPa | 2.6V | 18:12:15 | 01:28:39 | 00:00:00 | |
| DM0DOS-11 | 2026-09-04 12:19:00 | 56.78757 | 4.96953 | 72° | 55km/h | 17174m | 4.3m/s | -48.5°C | 2.8% | 88.8hPa | 2.7V | 08:30:00 | 01:28:32 | 00:00:00 | |
| DL1XH-west | 2026-09-04 12:18:54 | 56.78745 | 4.96877 | 73° | 58km/h | 17159m | 4.1m/s | -48.4°C | 0% | 89hPa | 2.6V | 18:12:15 | 01:28:29 | 00:00:00 | |
| DM0DOS-11 | 2026-09-04 12:18:49 | 56.78711 | 4.96637 | 78° | 53km/h | 17109m | 3.2m/s | -48°C | 2.7% | 89.6hPa | 2.6V | 08:30:00 | 01:28:19 | 00:00:00 | |
| DJ2DS-15 | 2026-09-04 12:18:47 | 56.78722 | 4.96730 | 76° | 49km/h | 17129m | 5.6m/s | -48.1°C | 0.5% | 89.4hPa | 2.6V | 00:00:00 | 00:00:00 | 00:00:00 | |
| DL1XH-west | 2026-09-04 12:18:43 | 56.78711 | 4.96637 | 78° | 53km/h | 17109m | 3.2m/s | -48°C | 0% | 89.6hPa | 2.6V | 18:12:15 | 01:28:19 | 00:00:00 | |
| DL1XH-west | 2026-09-04 12:18:33 | 56.78676 | 4.96374 | 79° | 55km/h | 17054m | 5.6m/s | -47.4°C | 0% | 90.4hPa | 2.7V | 18:12:15 | 01:28:08 | 00:00:00 | |
| DM0DOS-11 | 2026-09-04 12:18:28 | 56.78652 | 4.96133 | 81° | 51km/h | 17007m | 4.2m/s | -47.1°C | 2.5% | 91hPa | 2.6V | 08:30:00 | 01:27:58 | 00:00:00 | |
| DL1XH-west | 2026-09-04 12:18:23 | 56.78650 | 4.96109 | 82° | 51km/h | 17002m | 4.8m/s | -47.2°C | 0% | 91.1hPa | 2.7V | 18:12:15 | 01:27:57 | 00:00:00 | |
| DL1XH-west | 2026-09-04 12:18:11 | 56.78634 | 4.95853 | 83° | 53km/h | 16949m | 4.7m/s | -47.1°C | 0% | 91.8hPa | 2.7V | 18:12:15 | 01:27:46 | 00:00:00 | |
| DL1XH-west | 2026-09-04 12:18:00 | 56.78627 | 4.95597 | 87° | 49km/h | 16898m | 4.5m/s | -47.3°C | 0% | 92.5hPa | 2.7V | 18:12:15 | 01:27:35 | 00:00:00 | |
| DL1XH-west | 2026-09-04 12:17:49 | 56.78627 | 4.95295 | 88° | 55km/h | 16849m | 4.1m/s | -47.3°C | 0% | 93.2hPa | 2.6V | 18:12:15 | 01:27:24 | 00:00:00 | |
| DL1XH-west | 2026-09-04 12:17:38 | 56.78618 | 4.95035 | 90° | 58km/h | 16807m | 2.9m/s | -48°C | 0% | 93.8hPa | 2.7V | 18:12:15 | 01:27:14 | 00:00:00 | |
| DL1XH-west | 2026-09-04 12:17:28 | 56.78590 | 4.94745 | 80° | 55km/h | 16765m | 2.9m/s | -47.8°C | 0% | 94.4hPa | 2.6V | 18:12:15 | 01:27:03 | 00:00:00 | |
| DL1XH-west | 2026-09-04 12:17:18 | 56.78562 | 4.94455 | 79° | 57km/h | 16721m | 4m/s | -48.2°C | 0% | 95hPa | 2.6V | 18:12:15 | 01:26:52 | 00:00:00 | |
| DL1XH-west | 2026-09-04 12:17:07 | 56.78541 | 4.94161 | 79° | 68km/h | 16675m | 3.8m/s | -48.9°C | 0% | 95.7hPa | 2.6V | 18:12:15 | 01:26:41 | 00:00:00 | |
| DL1XH-west | 2026-09-04 12:16:56 | 56.78516 | 4.93856 | 87° | 69km/h | 16634m | 3.6m/s | -48.6°C | 0% | 96.3hPa | 2.6V | 18:12:15 | 01:26:31 | 00:00:00 | |
| DL1XH-west | 2026-09-04 12:16:45 | 56.78514 | 4.93536 | 90° | 68km/h | 16593m | 4.5m/s | -48.8°C | 0% | 97hPa | 2.6V | 18:12:15 | 01:26:21 | 00:00:00 | |
| DL1XH-west | 2026-09-04 12:16:35 | 56.78518 | 4.93176 | 95° | 73km/h | 16543m | 4.7m/s | -49.1°C | 0% | 97.7hPa | 2.6V | 18:12:15 | 01:26:10 | 00:00:00 | |
| DL1XH-west | 2026-09-04 12:16:24 | 56.78540 | 4.92787 | 96° | 69km/h | 16488m | 3.6m/s | -48.7°C | 0% | 98.5hPa | 2.7V | 18:12:15 | 01:25:58 | 00:00:00 | |
| DM0DOS-11 | 2026-09-04 12:16:22 | 56.78548 | 4.92626 | 92° | 66km/h | 16465m | 3.6m/s | -48.6°C | 2.7% | 98.8hPa | 2.7V | 08:30:00 | 01:25:53 | 00:00:00 | |
| DL1XH-west | 2026-09-04 12:16:14 | 56.78549 | 4.92473 | 91° | 68km/h | 16442m | 3.9m/s | -48.4°C | 0% | 99.2hPa | 2.7V | 18:12:15 | 01:25:48 | 00:00:00 | |
| DL1XH-west | 2026-09-04 12:16:03 | 56.78546 | 4.92157 | 90° | 68km/h | 16398m | 4m/s | -48.3°C | 0% | 99.9hPa | 2.7V | 18:12:15 | 01:25:38 | 00:00:00 | |
| DM0DOS-11 | 2026-09-04 12:15:57 | 56.78528 | 4.91829 | 81° | 66km/h | 16348m | 3.8m/s | -48.5°C | 2.6% | 100.6hPa | 2.7V | 08:30:00 | 01:25:28 | 00:00:00 | |
| DL1XH-west | 2026-09-04 12:15:53 | 56.78528 | 4.91829 | 81° | 66km/h | 16348m | 3.8m/s | -48.5°C | 0% | 100.6hPa | 2.7V | 18:12:15 | 01:25:28 | 00:00:00 | |
| DJ2DS-15 | 2026-09-04 12:15:47 | 56.78515 | 4.91676 | 77° | 66km/h | 16324m | 5.6m/s | -48.5°C | 0.6% | 101.0hPa | 2.7V | 00:00:00 | 00:00:00 | 00:00:00 | |
| DM0DOS-11 | 2026-09-04 12:15:46 | 56.78492 | 4.91519 | 76° | 73km/h | 16302m | 4.1m/s | -49°C | 2.7% | 101.3hPa | 2.7V | 08:30:00 | 01:25:18 | 00:00:00 | |
| DL1XH-west | 2026-09-04 12:15:43 | 56.78483 | 4.91455 | 74° | 69km/h | 16293m | 3.5m/s | -49.6°C | 0% | 101.5hPa | 2.7V | 18:12:15 | 01:25:16 | 00:00:00 | |
| DJ2DS-15 | 2026-09-04 12:15:36 | 56.78464 | 4.91332 | 74° | 64km/h | 16275m | 5.0m/s | -49.9°C | 2.9% | 101.7hPa | 2.6V | 00:00:00 | 01:25:12 | 00:00:00 | |
| DM0DOS-11 | 2026-09-04 12:15:35 | 56.78444 | 4.91213 | 72° | 68km/h | 16256m | 5.1m/s | -49.8°C | 2.9% | 102hPa | 2.6V | 08:30:00 | 01:25:08 | 00:00:00 | |
| DL1XH-west | 2026-09-04 12:15:31 | 56.78439 | 4.91184 | 73° | 66km/h | 16251m | 3.5m/s | -49.7°C | 0% | 102.1hPa | 2.7V | 18:12:15 | 01:25:07 | 00:00:00 | |
| DM0DOS-11 | 2026-09-04 12:15:27 | 56.78408 | 4.90931 | 77° | 60km/h | 16208m | 5.5m/s | -49.6°C | 3% | 102.8hPa | 2.7V | 08:30:00 | 01:24:58 | 00:00:00 | |
| DL1XH-west | 2026-09-04 12:15:21 | 56.78405 | 4.90904 | 76° | 60km/h | 16203m | 4.3m/s | -49.6°C | 0% | 102.9hPa | 2.7V | 18:12:15 | 01:24:57 | 00:00:00 | |
| DL1XH-west | 2026-09-04 12:15:10 | 56.78365 | 4.90530 | 79° | 66km/h | 16141m | 4.5m/s | -49.2°C | 0% | 103.8hPa | 2.6V | 18:12:15 | 01:24:44 | 00:00:00 | |
| DL1XH-west | 2026-09-04 12:15:00 | 56.78339 | 4.90221 | 83° | 71km/h | 16092m | 4.2m/s | -49°C | 0% | 104.6hPa | 2.6V | 18:12:15 | 01:24:34 | 00:00:00 | |
| DL1XH-west | 2026-09-04 12:14:50 | 56.78319 | 4.89913 | 84° | 68km/h | 16043m | 5.2m/s | -48.7°C | 0% | 105.5hPa | 2.7V | 18:12:15 | 01:24:24 | 00:00:00 | |
| DL1XH-west | 2026-09-04 12:14:39 | 56.78306 | 4.89604 | 82° | 69km/h | 15993m | 4.5m/s | -48.5°C | 0% | 106.3hPa | 2.6V | 18:12:15 | 01:24:14 | 00:00:00 | |
| DL1XH-west | 2026-09-04 12:14:27 | 56.78298 | 4.89254 | 89° | 69km/h | 15936m | 5m/s | -48.6°C | 0% | 107.1hPa | 2.6V | 18:12:15 | 01:24:03 | 00:00:00 | |
| DL1XH-west | 2026-09-04 12:14:17 | 56.78269 | 4.88830 | 86° | 68km/h | 15866m | 6m/s | -49.1°C | 0% | 108.3hPa | 2.7V | 18:12:15 | 01:23:50 | 00:00:00 | |
| DL1XH-west | 2026-09-04 12:14:05 | 56.78242 | 4.88518 | 82° | 69km/h | 15815m | 5.2m/s | -48.9°C | 0% | 109.2hPa | 2.7V | 18:12:15 | 01:23:40 | 00:00:00 | |
| DL1XH-west | 2026-09-04 12:13:54 | 56.78218 | 4.88225 | 81° | 68km/h | 15766m | 5.1m/s | -48.6°C | 0% | 109.9hPa | 2.6V | 18:12:15 | 01:23:30 | 00:00:00 | |
| DL1XH-west | 2026-09-04 12:13:44 | 56.78195 | 4.87905 | 85° | 64km/h | 15716m | 3.5m/s | -48.2°C | 0% | 110.8hPa | 2.7V | 18:12:15 | 01:23:19 | 00:00:00 | |
| DL1XH-west | 2026-09-04 12:13:34 | 56.78177 | 4.87636 | 86° | 60km/h | 15669m | 4m/s | -47.8°C | 0% | 111.7hPa | 2.6V | 18:12:15 | 01:23:09 | 00:00:00 | |
| DL1XH-west | 2026-09-04 12:13:23 | 56.78163 | 4.87347 | 83° | 53km/h | 15619m | 5.3m/s | -48°C | 0% | 112.5hPa | 2.7V | 18:12:15 | 01:22:58 | 00:00:00 | |
| DL1XH-west | 2026-09-04 12:13:13 | 56.78155 | 4.87078 | 90° | 57km/h | 15573m | 4.1m/s | -47.7°C | 0% | 113.3hPa | 2.7V | 18:12:15 | 01:22:48 | 00:00:00 | |
| DL1XH-west | 2026-09-04 12:13:02 | 56.78149 | 4.86814 | 87° | 62km/h | 15524m | 5.3m/s | -47.4°C | 0% | 114.1hPa | 2.6V | 18:12:15 | 01:22:38 | 00:00:00 | |
| DL1XH-west | 2026-09-04 12:12:51 | 56.78142 | 4.86500 | 82° | 64km/h | 15475m | 4.2m/s | -47.6°C | 0% | 115hPa | 2.7V | 18:12:15 | 01:22:27 | 00:00:00 | |
| DL1XH-west | 2026-09-04 12:12:40 | 56.78127 | 4.86123 | 88° | 69km/h | 15419m | 5.5m/s | -47.9°C | 0% | 115.9hPa | 2.6V | 18:12:15 | 01:22:15 | 00:00:00 | |
| DL1XH-west | 2026-09-04 12:12:28 | 56.78097 | 4.85735 | 83° | 78km/h | 15369m | 4.4m/s | -48°C | 0% | 116.8hPa | 2.6V | 18:12:15 | 01:22:04 | 00:00:00 | |
| DL1XH-west | 2026-09-04 12:12:17 | 56.78064 | 4.85357 | 82° | 75km/h | 15321m | 3m/s | -48°C | 0% | 117.7hPa | 2.6V | 18:12:15 | 01:21:53 | 00:00:00 | |
| DL1XH-west | 2026-09-04 12:12:08 | 56.78036 | 4.84768 | 89° | 80km/h | 15250m | 3.6m/s | -47.9°C | 0% | 118.9hPa | 2.6V | 18:12:15 | 01:21:37 | 00:00:00 | |
| DL1XH-west | 2026-09-04 12:11:50 | 56.78023 | 4.84058 | 85° | 95km/h | 15170m | 3.1m/s | -48°C | 0% | 120.4hPa | 2.7V | 18:12:15 | 01:21:19 | 00:00:00 | |
| DL1XH-west | 2026-09-04 12:11:38 | 56.78009 | 4.83848 | 84° | 88km/h | 15149m | 3.9m/s | -48.1°C | 0% | 120.8hPa | 2.7V | 18:12:15 | 01:21:14 | 00:00:00 | |
| DL1XH-west | 2026-09-04 12:11:27 | 56.77973 | 4.83413 | 80° | 89km/h | 15101m | 4.6m/s | -48.4°C | 0% | 121.7hPa | 2.7V | 18:12:15 | 01:21:03 | 00:00:00 | |
| DL1XH-west | 2026-09-04 12:11:17 | 56.77928 | 4.82953 | 79° | 93km/h | 15053m | 4.8m/s | -48.6°C | 0% | 122.5hPa | 2.7V | 18:12:15 | 01:20:52 | 00:00:00 | |
| DL1XH-west | 2026-09-04 12:11:07 | 56.77869 | 4.82530 | 76° | 99km/h | 15009m | 4.3m/s | -48.5°C | 0% | 123.4hPa | 2.7V | 18:12:15 | 01:20:42 | 00:00:00 | |
| DL1XH-west | 2026-09-04 12:10:56 | 56.77794 | 4.82061 | 71° | 99km/h | 14961m | 4m/s | -48.6°C | 0% | 124.3hPa | 2.6V | 18:12:15 | 01:20:31 | 00:00:00 | |
| DJ2DS-15 | 2026-09-04 12:10:55 | 56.77794 | 4.82061 | 72° | 89km/h | 14961m | 3.9m/s | -48.5°C | 2.8% | 124.2hPa | 2.6V | 00:00:00 | 01:20:31 | 00:00:00 | |
| DM0DOS-11 | 2026-09-04 12:10:53 | 56.77750 | 4.81776 | 74° | 88km/h | 14932m | 4.7m/s | -48.7°C | 2.9% | 124.8hPa | 2.6V | 08:30:00 | 01:20:24 | 00:00:00 | |
| DL1XH-west | 2026-09-04 12:10:46 | 56.77731 | 4.81661 | 73° | 88km/h | 14918m | 3.7m/s | -48.6°C | 0% | 125.1hPa | 2.7V | 18:12:15 | 01:20:21 | 00:00:00 | |
| DM0DOS-11 | 2026-09-04 12:10:39 | 56.77682 | 4.81387 | 72° | 88km/h | 14888m | 3.7m/s | -48.8°C | 2.8% | 125.7hPa | 2.6V | 08:30:00 | 01:20:14 | 00:00:00 | |
| DL1XH-west | 2026-09-04 12:10:34 | 56.77658 | 4.81235 | 75° | 88km/h | 14870m | 3.4m/s | -48.9°C | 0% | 126hPa | 2.6V | 18:12:15 | 01:20:10 | 00:00:00 | |
| DM0DOS-11 | 2026-09-04 12:10:33 | 56.77622 | 4.80996 | 72° | 95km/h | 14846m | 3.7m/s | -48.9°C | 2.9% | 126.5hPa | 2.6V | 08:30:00 | 01:20:04 | 00:00:00 | |
| DL1XH-west | 2026-09-04 12:10:23 | 56.77586 | 4.80790 | 73° | 91km/h | 14825m | 3.8m/s | -48.9°C | 0% | 126.9hPa | 2.6V | 18:12:15 | 01:19:59 | 00:00:00 | |
| DL1XH-west | 2026-09-04 12:10:13 | 56.77512 | 4.80394 | 69° | 91km/h | 14783m | 4.1m/s | -49.1°C | 0% | 127.7hPa | 2.7V | 18:12:15 | 01:19:49 | 00:00:00 | |
| DM0DOS-11 | 2026-09-04 12:10:11 | 56.77470 | 4.80196 | 67° | 93km/h | 14761m | 4.7m/s | -49°C | 2.9% | 128.2hPa | 2.7V | 08:30:00 | 01:19:44 | 00:00:00 | |
| DL1XH-west | 2026-09-04 12:10:03 | 56.77422 | 4.79963 | 70° | 88km/h | 14737m | 3.6m/s | -49°C | 0% | 128.6hPa | 2.7V | 18:12:15 | 01:19:38 | 00:00:00 | |
| DM0DOS-11 | 2026-09-04 12:09:59 | 56.77392 | 4.79807 | 69° | 89km/h | 14720m | 4.7m/s | -49°C | 2.9% | 128.9hPa | 2.7V | 08:30:00 | 01:19:34 | 00:00:00 | |
| DJ2DS-15 | 2026-09-04 12:09:55 | 56.77369 | 4.79692 | 73° | 84km/h | 14707m | 3.6m/s | -49.1°C | 2.9% | 129.2hPa | 2.6V | 00:00:00 | 01:19:31 | 08:30:00 | |
| DM0DOS-11 | 2026-09-04 12:09:54 | 56.77322 | 4.79434 | 71° | 82km/h | 14678m | 4.6m/s | -48.9°C | 2.9% | 129.8hPa | 2.7V | 08:30:00 | 01:19:24 | 00:00:00 | |
| DL1XH-west | 2026-09-04 12:09:51 | 56.77342 | 4.79544 | 71° | 84km/h | 14690m | 4m/s | -49°C | 0% | 129.5hPa | 2.7V | 18:12:15 | 01:19:27 | 00:00:00 | |
| DJ2DS-15 | 2026-09-04 12:09:46 | 56.77309 | 4.79362 | 72° | 82km/h | 14670m | 4.1m/s | -48.8°C | 0.8% | 130.0hPa | 2.6V | 00:00:00 | 00:00:00 | 00:00:00 | |
| DM0DOS-11 | 2026-09-04 12:09:43 | 56.77265 | 4.79060 | 74° | 82km/h | 14633m | 3.6m/s | -48.5°C | 2.8% | 130.7hPa | 2.6V | 08:30:00 | 01:19:14 | 00:00:00 | |
| DL1XH-west | 2026-09-04 12:09:40 | 56.77275 | 4.79135 | 77° | 86km/h | 14643m | 4.1m/s | -48.6°C | 0% | 130.5hPa | 2.7V | 18:12:15 | 01:19:16 | 00:00:00 | |
| DJ2DS-15 | 2026-09-04 12:09:35 | 56.77249 | 4.78948 | 76° | 82km/h | 14621m | 3.7m/s | -48.5°C | 2.8% | 130.9hPa | 2.6V | 00:00:00 | 01:19:11 | 00:00:00 | |
| DM0DOS-11 | 2026-09-04 12:09:33 | 56.77215 | 4.78693 | 77° | 80km/h | 14590m | 4.2m/s | -48.4°C | 2.7% | 131.6hPa | 2.6V | 08:30:00 | 01:19:04 | 00:00:00 | |
| DL1XH-west | 2026-09-04 12:09:29 | 56.77219 | 4.78729 | 77° | 82km/h | 14595m | 4.6m/s | -48.4°C | 0% | 131.5hPa | 2.6V | 18:12:15 | 01:19:05 | 00:00:00 | |
| DM0DOS-11 | 2026-09-04 12:09:23 | 56.77168 | 4.78288 | 78° | 82km/h | 14541m | 3.5m/s | -48.4°C | 2.8% | 132.6hPa | 2.6V | 08:30:00 | 01:18:53 | 00:00:00 | |
| DL1XH-west | 2026-09-04 12:09:18 | 56.77164 | 4.78251 | 78° | 80km/h | 14536m | 5.2m/s | -48.4°C | 0% | 132.6hPa | 2.7V | 18:12:15 | 01:18:52 | 00:00:00 | |
| DJ2DS-15 | 2026-09-04 12:09:15 | 56.77160 | 4.78215 | 78° | 80km/h | 14532m | 4.2m/s | -48.3°C | 2.7% | 132.7hPa | 2.6V | 00:00:00 | 01:18:51 | 00:00:00 | |
| DM0DOS-11 | 2026-09-04 12:09:12 | 56.77120 | 4.77920 | 76° | 80km/h | 14495m | 4.5m/s | -48.4°C | 2.7% | 133.5hPa | 2.6V | 08:30:00 | 01:18:43 | 00:00:00 | |
| DL1XH-west | 2026-09-04 12:09:05 | 56.77110 | 4.77850 | 77° | 78km/h | 14486m | 4.5m/s | -48.4°C | 0% | 133.7hPa | 2.7V | 18:12:15 | 01:18:41 | 00:00:00 | |
| DM0DOS-11 | 2026-09-04 12:08:57 | 56.77057 | 4.77431 | 77° | 78km/h | 14432m | 5.3m/s | -48.6°C | 2.9% | 134.8hPa | 2.7V | 08:30:00 | 01:18:29 | 00:00:00 | |
| DL1XH-west | 2026-09-04 12:08:55 | 56.77061 | 4.77466 | 77° | 80km/h | 14437m | 4.7m/s | -48.6°C | 0% | 134.7hPa | 2.7V | 18:12:15 | 01:18:30 | 00:00:00 | |
| DM0DOS-11 | 2026-09-04 12:08:47 | 56.77011 | 4.77052 | 80° | 73km/h | 14380m | 5.4m/s | -48.9°C | 2.9% | 135.8hPa | 2.7V | 08:30:00 | 01:18:18 | 00:00:00 | |
| DL1XH-west | 2026-09-04 12:08:44 | 56.77018 | 4.77118 | 78° | 73km/h | 14390m | 4.8m/s | -49°C | 0% | 135.6hPa | 2.6V | 18:12:15 | 01:18:20 | 00:00:00 | |
| DM0DOS-11 | 2026-09-04 12:08:37 | 56.76985 | 4.76695 | 83° | 80km/h | 14334m | 3.6m/s | -48.6°C | 2.8% | 136.8hPa | 2.7V | 08:30:00 | 01:18:08 | 00:00:00 | |
| DL1XH-west | 2026-09-04 12:08:33 | 56.76988 | 4.76732 | 83° | 82km/h | 14338m | 4.5m/s | -48.6°C | 0% | 136.7hPa | 2.6V | 18:12:15 | 01:18:09 | 00:00:00 | |
| DM0DOS-11 | 2026-09-04 12:08:27 | 56.76962 | 4.76335 | 85° | 80km/h | 14287m | 5.3m/s | -48.2°C | 2.8% | 137.8hPa | 2.6V | 08:30:00 | 01:17:58 | 00:00:00 | |
| DL1XH-west | 2026-09-04 12:08:23 | 56.76962 | 4.76335 | 86° | 80km/h | 14287m | 5.3m/s | -48.2°C | 0% | 137.8hPa | 2.6V | 18:12:15 | 01:17:58 | 00:00:00 | |
| DM0DOS-11 | 2026-09-04 12:08:17 | 56.76947 | 4.75958 | 81° | 80km/h | 14240m | 4.8m/s | -47.9°C | 2.7% | 138.8hPa | 2.6V | 08:30:00 | 01:17:48 | 00:00:00 | |
| DL1XH-west | 2026-09-04 12:08:12 | 56.76947 | 4.75958 | 82° | 80km/h | 14240m | 4.8m/s | -47.9°C | 0% | 138.8hPa | 2.6V | 18:12:15 | 01:17:48 | 00:00:00 | |
| DM0DOS-11 | 2026-09-04 12:08:07 | 56.76933 | 4.75568 | 84° | 84km/h | 14194m | 5.1m/s | -47.7°C | 2.7% | 139.8hPa | 2.6V | 08:30:00 | 01:17:38 | 00:00:00 | |
| DL1XH-west | 2026-09-04 12:08:03 | 56.76932 | 4.75568 | 85° | 84km/h | 14194m | 5.1m/s | -47.7°C | 0% | 139.8hPa | 2.6V | 18:12:15 | 01:17:38 | 00:00:00 | |
| DJ2DS-15 | 2026-09-04 12:07:55 | 56.76914 | 4.75300 | 86° | 93km/h | 14162m | 3.6m/s | -47.5°C | 2.7% | 140.4hPa | 2.6V | 00:00:00 | 01:17:31 | 00:00:00 | |
| DM0DOS-11 | 2026-09-04 12:07:52 | 56.76906 | 4.75093 | 86° | 93km/h | 14137m | 4.2m/s | -47.5°C | 2.7% | 140.9hPa | 2.6V | 08:30:00 | 01:17:26 | 00:00:00 | |
| DL1XH-west | 2026-09-04 12:07:52 | 56.76909 | 4.75178 | 86° | 91km/h | 14147m | 4.7m/s | -47.5°C | 0% | 140.7hPa | 2.7V | 18:12:15 | 01:17:28 | 00:00:00 | |
| DL1XH-west | 2026-09-04 12:07:41 | 56.76881 | 4.74703 | 83° | 93km/h | 14088m | 5.2m/s | -47.5°C | 0% | 142hPa | 2.7V | 18:12:15 | 01:17:17 | 00:00:00 | |
| DM0DOS-11 | 2026-09-04 12:07:41 | 56.76878 | 4.74660 | 83° | 93km/h | 14083m | 3.9m/s | -47.5°C | 2.8% | 142.1hPa | 2.6V | 00:00:00 | 01:17:16 | 00:00:00 | |
| DL1XH-west | 2026-09-04 12:07:31 | 56.76852 | 4.74257 | 84° | 102km/h | 14035m | 5.7m/s | -47.6°C | 0% | 143.2hPa | 2.7V | 18:12:15 | 01:17:07 | 00:00:00 | |
| DM0DOS-11 | 2026-09-04 12:07:31 | 56.76849 | 4.74210 | 83° | 100km/h | 14030m | 4.4m/s | -47.5°C | 2.7% | 143.3hPa | 2.7V | 00:00:00 | 01:17:06 | 00:00:00 | |
| DM0DOS-11 | 2026-09-04 12:07:21 | 56.76810 | 4.73738 | 79° | 106km/h | 13977m | 4.8m/s | -47.7°C | 2.7% | 144.4hPa | 2.7V | 00:00:00 | 01:16:56 | 00:00:00 | |
| DL1XH-west | 2026-09-04 12:07:21 | 56.76814 | 4.73785 | 79° | 104km/h | 13982m | 4.4m/s | -47.7°C | 0% | 144.3hPa | 2.7V | 18:12:15 | 01:16:57 | 00:00:00 | |
| DM0DOS-11 | 2026-09-04 12:07:15 | 56.76754 | 4.73249 | 75° | 110km/h | 13927m | 5m/s | -47.4°C | 2.8% | 145.5hPa | 2.7V | 00:00:00 | 01:16:46 | 00:00:00 | |
| DL1XH-west | 2026-09-04 12:07:11 | 56.76761 | 4.73298 | 76° | 108km/h | 13931m | 3.9m/s | -47.4°C | 0% | 145.4hPa | 2.6V | 18:12:15 | 01:16:47 | 00:00:00 | |
| DM0DOS-11 | 2026-09-04 12:07:04 | 56.76683 | 4.72756 | 75° | 111km/h | 13881m | 4.4m/s | -47°C | 2.7% | 146.6hPa | 2.6V | 00:00:00 | 01:16:36 | 00:00:00 | |
| DL1XH-west | 2026-09-04 12:07:01 | 56.76683 | 4.72756 | 75° | 111km/h | 13881m | 4.4m/s | -47°C | 0% | 146.6hPa | 2.6V | 18:12:15 | 01:16:36 | 00:00:00 | |
| DJ2DS-15 | 2026-09-04 12:06:55 | 56.76643 | 4.72510 | 74° | 111km/h | 13857m | 3.7m/s | -46.8°C | 2.7% | 147.0hPa | 2.6V | 00:00:00 | 01:16:31 | 08:30:00 | |
| DM0DOS-11 | 2026-09-04 12:06:51 | 56.76603 | 4.72263 | 74° | 111km/h | 13834m | 3.5m/s | 0°C | 0% | 0hPa | 2.6V | 00:00:00 | 01:16:26 | 00:00:00 | |
| DL1XH-west | 2026-09-04 12:06:50 | 56.76603 | 4.72263 | 74° | 111km/h | 13834m | 3.6m/s | -46.8°C | 0% | 147.6hPa | 2.6V | 18:12:15 | 01:16:26 | 00:00:00 | |
| DM0DOS-11 | 2026-09-04 12:06:45 | 56.76528 | 4.71778 | 74° | 113km/h | 13788m | 5.2m/s | 0°C | 0% | 0hPa | 2.7V | 00:00:00 | 01:16:16 | 00:00:00 | |
| DL1XH-west | 2026-09-04 12:06:40 | 56.76528 | 4.71778 | 74° | 113km/h | 13788m | 5.2m/s | -46.6°C | 0% | 148.6hPa | 2.7V | 18:12:15 | 01:16:16 | 00:00:00 | |
| DJ2DS-15 | 2026-09-04 12:06:35 | 56.76486 | 4.71528 | 72° | 106km/h | 13767m | 4.9m/s | -46.5°C | 2.6% | 149.1hPa | 2.7V | 00:00:00 | 01:16:11 | 00:00:00 | |
| DM0DOS-11 | 2026-09-04 12:06:34 | 56.76446 | 4.71298 | 72° | 104km/h | 13745m | 4.7m/s | 0°C | 0% | 0hPa | 2.7V | 00:00:00 | 01:16:06 | 00:00:00 | |
| DL1XH-west | 2026-09-04 12:06:30 | 56.76446 | 4.71298 | 73° | 104km/h | 13745m | 4.7m/s | -46.6°C | 0% | 149.6hPa | 2.7V | 18:12:15 | 01:16:06 | 00:00:00 | |
| DM0DOS-11 | 2026-09-04 12:06:23 | 56.76358 | 4.70823 | 69° | 104km/h | 13701m | 4.5m/s | 0°C | 0% | 0hPa | 2.7V | 00:00:00 | 01:15:56 | 00:00:00 | |
| DL1XH-west | 2026-09-04 12:06:19 | 56.76348 | 4.70779 | 69° | 104km/h | 13697m | 3.8m/s | -46.3°C | 0% | 150.7hPa | 2.7V | 18:12:15 | 01:15:55 | 00:00:00 | |
| DJ2DS-15 | 2026-09-04 12:06:15 | 56.76313 | 4.70601 | 71° | 104km/h | 13680m | 4.2m/s | -46.1°C | 2.6% | 151.0hPa | 2.6V | 00:00:00 | 01:15:51 | 00:00:00 | |
| DM0DOS-11 | 2026-09-04 12:06:12 | 56.76270 | 4.70376 | 69° | 104km/h | 13657m | 4m/s | 0°C | 0% | 0hPa | 2.6V | 00:00:00 | 01:15:46 | 00:00:00 | |
| DL1XH-west | 2026-09-04 12:06:09 | 56.76261 | 4.70331 | 70° | 104km/h | 13652m | 4.9m/s | -46.4°C | 0% | 151.8hPa | 2.7V | 18:12:15 | 01:15:45 | 00:00:00 | |
| DM0DOS-11 | 2026-09-04 12:06:01 | 56.76188 | 4.69917 | 73° | 104km/h | 13614m | 3.8m/s | 0°C | 0% | 0hPa | 2.6V | 00:00:00 | 01:15:36 | 00:00:00 | |
| DL1XH-west | 2026-09-04 12:05:58 | 56.76174 | 4.69825 | 74° | 104km/h | 13606m | 3.8m/s | -46.1°C | 0% | 152.8hPa | 2.7V | 18:12:15 | 01:15:34 | 00:00:00 | |
| DM0DOS-11 | 2026-09-04 12:05:55 | 56.76114 | 4.69454 | 73° | 102km/h | 13572m | 3.1m/s | 0°C | 0% | 0hPa | 2.6V | 00:00:00 | 01:15:26 | 00:00:00 | |
| DL1XH-west | 2026-09-04 12:05:47 | 56.76091 | 4.69321 | 72° | 100km/h | 13561m | 3.2m/s | -46.5°C | 0% | 153.8hPa | 2.7V | 18:12:15 | 01:15:23 | 00:00:00 | |
| DM0DOS-11 | 2026-09-04 12:05:44 | 56.76037 | 4.69009 | 71° | 104km/h | 13531m | 4.6m/s | 0°C | 0% | 0hPa | 2.7V | 00:00:00 | 01:15:16 | 00:00:00 | |
| DL1XH-west | 2026-09-04 12:05:37 | 56.76005 | 4.68832 | 72° | 99km/h | 13515m | 3.1m/s | -46.4°C | 0% | 154.9hPa | 2.7V | 18:12:15 | 01:15:12 | 00:00:00 | |
| DL1XH-west | 2026-09-04 12:05:25 | 56.75930 | 4.68362 | 75° | 99km/h | 13471m | 3.5m/s | -46.6°C | 0% | 155.9hPa | 2.7V | 18:12:15 | 01:15:01 | 00:00:00 | |
| DL1XH-west | 2026-09-04 12:05:14 | 56.75865 | 4.67842 | 78° | 106km/h | 13422m | 3.7m/s | -46.3°C | 0% | 157.1hPa | 2.7V | 18:12:15 | 01:14:50 | 00:00:00 | |
| DL1XH-west | 2026-09-04 12:05:04 | 56.75825 | 4.67357 | 82° | 110km/h | 13383m | 3.2m/s | -45.9°C | 0% | 158hPa | 2.6V | 18:12:15 | 01:14:40 | 00:00:00 | |
| DL1XH-west | 2026-09-04 12:04:53 | 56.75776 | 4.66819 | 83° | 108km/h | 13342m | 3.9m/s | -45.6°C | 0% | 158.9hPa | 2.6V | 18:12:15 | 01:14:29 | 00:00:00 | |
| DL1XH-west | 2026-09-04 12:04:42 | 56.75725 | 4.66264 | 82° | 111km/h | 13301m | 2.9m/s | -45.3°C | 0% | 159.9hPa | 2.6V | 18:12:15 | 01:14:18 | 00:00:00 | |
| DL1XH-west | 2026-09-04 12:04:33 | 56.75685 | 4.65751 | 81° | 117km/h | 13264m | 3.6m/s | -45.6°C | 0% | 160.8hPa | 2.6V | 18:12:15 | 01:14:08 | 00:00:00 | |
| DL1XH-west | 2026-09-04 12:04:21 | 56.75627 | 4.65166 | 78° | 124km/h | 13222m | 4.3m/s | -45.8°C | 0% | 161.9hPa | 2.6V | 18:12:15 | 01:13:57 | 00:00:00 | |
| DL1XH-west | 2026-09-04 12:04:11 | 56.75558 | 4.64544 | 79° | 122km/h | 13180m | 4.1m/s | -45.7°C | 0% | 162.9hPa | 2.6V | 18:12:15 | 01:13:46 | 00:00:00 | |
| DL1XH-west | 2026-09-04 12:04:00 | 56.75492 | 4.63938 | 79° | 122km/h | 13136m | 3.7m/s | -45.7°C | 0% | 164hPa | 2.6V | 18:12:15 | 01:13:35 | 00:00:00 | |
| DL1XH-west | 2026-09-04 12:03:49 | 56.75440 | 4.63401 | 79° | 115km/h | 13094m | 4.2m/s | -45.8°C | 0% | 164.9hPa | 2.6V | 18:12:15 | 01:13:25 | 00:00:00 | |
| DJ2DS-15 | 2026-09-04 12:03:46 | 56.75415 | 4.63192 | 77° | 115km/h | 13078m | 3.9m/s | -45.8°C | 0.8% | 165.4hPa | 2.6V | 00:00:00 | 00:00:00 | 00:00:00 | |
| DL1XH-west | 2026-09-04 12:03:39 | 56.75370 | 4.62774 | 80° | 113km/h | 13046m | 4.3m/s | -45.8°C | 0% | 166.2hPa | 2.6V | 18:12:15 | 01:13:13 | 00:00:00 | |
| DL1XH-west | 2026-09-04 12:03:27 | 56.75313 | 4.62216 | 81° | 110km/h | 12998m | 4.7m/s | -45.6°C | 0% | 167.4hPa | 2.6V | 18:12:15 | 01:13:02 | 00:00:00 | |
| DL1XH-west | 2026-09-04 12:03:16 | 56.75265 | 4.61729 | 79° | 110km/h | 12953m | 4.1m/s | -46.4°C | 0% | 168.5hPa | 2.7V | 18:12:15 | 01:12:52 | 00:00:00 | |
| DL1XH-west | 2026-09-04 12:03:06 | 56.75216 | 4.61191 | 83° | 110km/h | 12903m | 4.5m/s | -46.6°C | 0% | 169.8hPa | 2.7V | 18:12:15 | 01:12:41 | 00:00:00 | |
| DL1XH-west | 2026-09-04 12:02:55 | 56.75184 | 4.60672 | 85° | 117km/h | 12857m | 5m/s | -46.7°C | 0% | 170.9hPa | 2.7V | 18:12:15 | 01:12:31 | 00:00:00 | |
| DL1XH-west | 2026-09-04 12:02:45 | 56.75143 | 4.60062 | 82° | 126km/h | 12803m | 5.3m/s | -47.3°C | 0% | 172.3hPa | 2.7V | 18:12:15 | 01:12:20 | 00:00:00 | |
| DL1XH-west | 2026-09-04 12:02:34 | 56.75094 | 4.59440 | 82° | 126km/h | 12748m | 4.3m/s | -47.3°C | 0% | 173.8hPa | 2.6V | 18:12:15 | 01:12:09 | 00:00:00 | |
| DL1XH-west | 2026-09-04 12:02:23 | 56.75049 | 4.58858 | 83° | 128km/h | 12699m | 4.6m/s | -47.1°C | 0% | 175.1hPa | 2.6V | 18:12:15 | 01:11:59 | 00:00:00 | |
| DL1XH-west | 2026-09-04 12:02:13 | 56.74997 | 4.58281 | 82° | 126km/h | 12650m | 4m/s | -47.1°C | 0% | 176.4hPa | 2.7V | 18:12:15 | 01:11:49 | 00:00:00 | |
| DL1XH-west | 2026-09-04 12:02:03 | 56.74940 | 4.57640 | 80° | 131km/h | 12596m | 5.6m/s | -46.8°C | 0% | 177.8hPa | 2.7V | 18:12:15 | 01:11:38 | 00:00:00 | |
| DL1XH-west | 2026-09-04 12:01:53 | 56.74882 | 4.57053 | 81° | 128km/h | 12546m | 5.8m/s | -46.8°C | 0% | 179.2hPa | 2.7V | 18:12:15 | 01:11:28 | 00:00:00 | |
| DL1XH-west | 2026-09-04 12:01:43 | 56.74829 | 4.56458 | 81° | 131km/h | 12496m | 4.7m/s | -46.9°C | 0% | 180.5hPa | 2.6V | 18:12:15 | 01:11:18 | 00:00:00 | |
| DL1XH-west | 2026-09-04 12:01:33 | 56.74775 | 4.55849 | 80° | 142km/h | 12448m | 5.3m/s | -47.1°C | 0% | 181.9hPa | 2.7V | 18:12:15 | 01:11:08 | 00:00:00 | |
| DL1XH-west | 2026-09-04 12:01:22 | 56.74697 | 4.55144 | 81° | 144km/h | 12396m | 4.7m/s | -47.3°C | 0% | 183.3hPa | 2.7V | 18:12:15 | 01:10:57 | 00:00:00 | |
| DL1XH-west | 2026-09-04 12:01:10 | 56.74621 | 4.54436 | 78° | 141km/h | 12346m | 4.1m/s | -47.4°C | 0% | 184.7hPa | 2.7V | 18:12:15 | 01:10:46 | 00:00:00 | |
| DL1XH-west | 2026-09-04 12:00:59 | 56.74534 | 4.53745 | 76° | 139km/h | 12298m | 4.4m/s | -47.4°C | 0% | 186hPa | 2.6V | 18:12:15 | 01:10:35 | 00:00:00 | |
| DL1XH-west | 2026-09-04 12:00:49 | 56.74456 | 4.53135 | 77° | 137km/h | 12255m | 4.9m/s | -47.5°C | 0% | 187.2hPa | 2.7V | 18:12:15 | 01:10:25 | 00:00:00 | |
| DL1XH-west | 2026-09-04 12:00:39 | 56.74375 | 4.52452 | 76° | 137km/h | 12211m | 3.9m/s | -47.6°C | 0% | 188.5hPa | 2.7V | 18:12:15 | 01:10:14 | 00:00:00 | |
| DL1XH-west | 2026-09-04 12:00:28 | 56.74293 | 4.51838 | 77° | 141km/h | 12172m | 3m/s | -47.4°C | 0% | 189.6hPa | 2.6V | 18:12:15 | 01:10:04 | 00:00:00 | |
| DL1XH-west | 2026-09-04 12:00:17 | 56.74185 | 4.51020 | 76° | 144km/h | 12123m | 3.6m/s | -47.5°C | 0% | 191hPa | 2.7V | 18:12:15 | 01:09:51 | 00:00:00 | |
| DL1XH-west | 2026-09-04 12:00:05 | 56.74104 | 4.50367 | 77° | 148km/h | 12086m | 3.8m/s | -47.5°C | 0% | 192.1hPa | 2.6V | 18:12:15 | 01:09:41 | 00:00:00 | |
| DL1XH-west | 2026-09-04 11:59:54 | 56.74014 | 4.49625 | 77° | 153km/h | 12044m | 3.9m/s | -47.2°C | 0% | 193.3hPa | 2.6V | 18:12:15 | 01:09:30 | 00:00:00 | |
| DL1XH-west | 2026-09-04 11:59:43 | 56.73917 | 4.48876 | 78° | 155km/h | 12005m | 3.1m/s | -47°C | 0% | 194.5hPa | 2.7V | 18:12:15 | 01:09:19 | 00:00:00 | |
| DL1XH-west | 2026-09-04 11:59:32 | 56.73829 | 4.48132 | 78° | 150km/h | 11963m | 3.2m/s | -47.3°C | 0% | 195.7hPa | 2.7V | 18:12:15 | 01:09:08 | 00:00:00 | |
| DL1XH-west | 2026-09-04 11:59:22 | 56.73747 | 4.47462 | 76° | 146km/h | 11926m | 3.4m/s | -47.3°C | 0% | 196.8hPa | 2.6V | 18:12:15 | 01:08:58 | 00:00:00 | |
| DL1XH-west | 2026-09-04 11:59:12 | 56.73668 | 4.46807 | 79° | 148km/h | 11888m | 2.9m/s | -47.4°C | 0% | 198hPa | 2.7V | 18:12:15 | 01:08:48 | 00:00:00 | |
| DL1XH-west | 2026-09-04 11:59:01 | 56.73577 | 4.46079 | 78° | 150km/h | 11848m | 3.7m/s | -47.3°C | 0% | 0hPa | 2.7V | 18:12:15 | 01:08:37 | 00:00:00 | |
| DL1XH-west | 2026-09-04 11:58:51 | 56.73500 | 4.45397 | 79° | 153km/h | 11809m | 3.9m/s | -47.3°C | 0% | 0hPa | 2.7V | 18:12:15 | 01:08:27 | 00:00:00 | |
| DL1XH-west | 2026-09-04 11:58:40 | 56.73416 | 4.44632 | 79° | 157km/h | 11767m | 3.5m/s | -47.6°C | 0% | 0hPa | 2.7V | 18:12:15 | 01:08:16 | 00:00:00 | |
| DL1XH-west | 2026-09-04 11:58:29 | 56.73331 | 4.43849 | 80° | 161km/h | 11722m | 3.5m/s | 0°C | 0% | 0hPa | 2.7V | 18:12:15 | 01:08:05 | 00:00:00 | |
| DL1XH-west | 2026-09-04 11:58:18 | 56.73235 | 4.42972 | 78° | 161km/h | 11671m | 3.1m/s | 0°C | 0% | 0hPa | 2.7V | 18:12:15 | 01:07:53 | 00:00:00 | |
| DJ2DS-15 | 2026-09-04 11:58:12 | 56.73194 | 4.42609 | 79° | 161km/h | 11649m | 4.5m/s | -47.5°C | 3.2% | 205.1hPa | 2.7V | 00:00:00 | 01:07:48 | 00:00:00 | |
| DJ2DS-15 | 2026-09-04 11:57:45 | 56.72974 | 4.40565 | 78° | 161km/h | 11535m | 4.4m/s | -47.4°C | 1.4% | 208.8hPa | 2.7V | 00:00:00 | 00:00:00 | 00:00:00 | |
| DJ2DS-15 | 2026-09-04 11:57:32 | 56.72865 | 4.39701 | 77° | 162km/h | 11482m | 3.6m/s | -47.6°C | 3.4% | 210.4hPa | 2.7V | 00:00:00 | 01:07:08 | 00:00:00 | |
| DJ2DS-15 | 2026-09-04 11:57:12 | 56.72674 | 4.38240 | 77° | 172km/h | 11394m | 4.2m/s | -47.1°C | 3.2% | 213.2hPa | 2.7V | 00:00:00 | 01:06:48 | 00:00:00 | |
| DJ2DS-15 | 2026-09-04 11:56:52 | 56.72463 | 4.36714 | 76° | 173km/h | 11305m | 4.0m/s | -46.7°C | 3.3% | 216.1hPa | 2.7V | 00:00:00 | 01:06:28 | 00:00:00 | |
| DJ2DS-15 | 2026-09-04 11:56:33 | 56.72241 | 4.35178 | 75° | 173km/h | 11223m | 4.3m/s | -46.3°C | 1.6% | 218.8hPa | 2.7V | 00:00:00 | 00:00:00 | 00:00:00 | |
| DJ2DS-15 | 2026-09-04 11:56:32 | 56.72240 | 4.35178 | 76° | 175km/h | 11224m | 4.3m/s | -46.2°C | 3.4% | 218.8hPa | 2.7V | 00:00:00 | 01:06:08 | 00:00:00 | |
| DJ2DS-15 | 2026-09-04 11:56:12 | 56.72029 | 4.33617 | 77° | 177km/h | 11143m | 3.6m/s | -46.1°C | 3.5% | 221.5hPa | 2.7V | 00:00:00 | 01:05:48 | 00:00:00 | |
| DJ2DS-15 | 2026-09-04 11:55:51 | 56.71799 | 4.31953 | 76° | 179km/h | 11061m | 3.7m/s | -45.7°C | 3.6% | 224.3hPa | 2.7V | 00:00:00 | 01:05:27 | 00:00:00 | |
| DJ2DS-15 | 2026-09-04 11:55:31 | 56.71566 | 4.30364 | 74° | 184km/h | 10981m | 3.3m/s | -46.0°C | 3.9% | 227.0hPa | 2.6V | 00:00:00 | 01:05:07 | 00:00:00 | |
| DJ2DS-15 | 2026-09-04 11:55:11 | 56.71301 | 4.28748 | 75° | 177km/h | 10900m | 3.2m/s | -45.7°C | 4.0% | 229.8hPa | 2.6V | 00:00:00 | 01:04:47 | 00:00:00 | |
| DJ2DS-15 | 2026-09-04 11:54:44 | 56.70982 | 4.26637 | 75° | 172km/h | 10794m | 4.4m/s | -45.4°C | 2.2% | 233.6hPa | 2.6V | 00:00:00 | 00:00:00 | 00:00:00 | |
| DJ2DS-15 | 2026-09-04 11:54:31 | 56.70837 | 4.25642 | 74° | 179km/h | 10740m | 4.3m/s | -45.0°C | 4.0% | 235.5hPa | 2.6V | 00:00:00 | 01:04:07 | 00:00:00 | |
| DJ2DS-15 | 2026-09-04 11:54:11 | 56.70589 | 4.24062 | 74° | 184km/h | 10656m | 3.9m/s | -44.9°C | 4.1% | 238.5hPa | 2.6V | 00:00:00 | 01:03:47 | 00:00:00 | |
| DJ2DS-15 | 2026-09-04 11:53:51 | 56.70328 | 4.22440 | 75° | 179km/h | 10570m | 4.4m/s | -45.0°C | 4.5% | 241.5hPa | 2.6V | 00:00:00 | 01:03:27 | 00:00:00 | |
| DJ2DS-15 | 2026-09-04 11:53:32 | 56.70077 | 4.20941 | 72° | 183km/h | 10488m | 3.6m/s | -44.9°C | 2.9% | 244.5hPa | 0V | 00:00:00 | 00:00:00 | 00:00:00 | |
| DJ2DS-15 | 2026-09-04 11:53:31 | 56.70063 | 4.20861 | 73° | 186km/h | 10485m | 3.3m/s | 0°C | 0% | 0hPa | 0V | 00:00:00 | 01:03:07 | 00:00:00 | |
| DJ2DS-15 | 2026-09-04 11:53:11 | 56.69780 | 4.19233 | 73° | 188km/h | 10399m | 4.4m/s | 0°C | 0% | 0hPa | 0V | 00:00:00 | 01:02:47 | 00:00:00 | |
| DJ2DS-15 | 2026-09-04 11:52:56 | 56.69578 | 4.17989 | 73° | 190km/h | 10337m | 3.5m/s | -44.6°C | 3.3% | 250.1hPa | 0V | 00:00:00 | 00:00:00 | 00:00:00 | |
| DJ2DS-15 | 2026-09-04 11:52:51 | 56.69512 | 4.17571 | 75° | 188km/h | 10316m | 4.4m/s | 0°C | 0% | 0hPa | 0V | 00:00:00 | 01:02:27 | 00:00:00 | |
| DJ2DS-15 | 2026-09-04 11:52:30 | 56.69225 | 4.15843 | 73° | 190km/h | 10231m | 4.4m/s | 0°C | 0% | 0hPa | 0V | 00:00:00 | 01:02:06 | 00:00:00 | |
| DJ2DS-15 | 2026-09-04 11:52:20 | 56.69086 | 4.15005 | 74° | 188km/h | 10189m | 3.4m/s | -44.6°C | 3.8% | 255.8hPa | 0V | 00:00:00 | 00:00:00 | 00:00:00 | |
| DJ2DS-15 | 2026-09-04 11:52:10 | 56.68953 | 4.14171 | 75° | 192km/h | 10149m | 4.7m/s | 0°C | 0% | 0hPa | 0V | 00:00:00 | 01:01:46 | 00:00:00 | |
| DJ2DS-15 | 2026-09-04 11:51:44 | 56.68629 | 4.11957 | 73° | 195km/h | 10046m | 3.6m/s | -44.8°C | -1.0% | 261.3hPa | 0V | 00:00:00 | 00:00:00 | 00:00:00 | |
| DJ2DS-15 | 2026-09-04 11:51:08 | 56.68110 | 4.08809 | 73° | 186km/h | 9889m | 5.9m/s | -44.3°C | -1.0% | 267.5hPa | 0V | 00:00:00 | 00:00:00 | 00:00:00 | |
| DJ2DS-15 | 2026-09-04 11:49:20 | 56.66697 | 4.00192 | 74° | 177km/h | 9494m | 4.2m/s | 0°C | -1.0% | -1.0hPa | 0V | 00:00:00 | 00:00:00 | 00:00:00 |